<?xml version="1.0" encoding="UTF-8" standalone="no" ?>
<gpx xmlns="http://www.topografix.com/GPX/1/1" xmlns:xsi="http://www.w3.org/2001/XMLSchema-instance" xsi:schemaLocation="http://www.topografix.com/GPX/1/1 http://www.topografix.com/GPX/1/1/gpx.xsd" version="1.1" creator="VisuGPX - https://www.visugpx.com">
  <metadata>
    <name>Alban</name>
  </metadata>
  <trk>
    <name><![CDATA[9882477-jany grimpe]]></name>
    <trkseg>
      <trkpt lat="49.26278" lon="4.01327">
        <ele>81</ele>
        <time>2021-05-04T06:09:19Z</time>
      </trkpt>
      <trkpt lat="49.26286" lon="4.01401">
        <ele>81</ele>
        <time>2021-05-04T06:09:28Z</time>
      </trkpt>
      <trkpt lat="49.26265" lon="4.01678">
        <ele>83</ele>
        <time>2021-05-04T06:10:00Z</time>
      </trkpt>
      <trkpt lat="49.26261" lon="4.01701">
        <ele>83</ele>
        <time>2021-05-04T06:10:03Z</time>
      </trkpt>
      <trkpt lat="49.26212" lon="4.01802">
        <ele>81</ele>
        <time>2021-05-04T06:10:17Z</time>
      </trkpt>
      <trkpt lat="49.2621" lon="4.01825">
        <ele>81</ele>
        <time>2021-05-04T06:10:20Z</time>
      </trkpt>
      <trkpt lat="49.26243" lon="4.01958">
        <ele>83</ele>
        <time>2021-05-04T06:10:37Z</time>
      </trkpt>
      <trkpt lat="49.26243" lon="4.01983">
        <ele>83</ele>
        <time>2021-05-04T06:10:40Z</time>
      </trkpt>
      <trkpt lat="49.26234" lon="4.02059">
        <ele>82</ele>
        <time>2021-05-04T06:10:49Z</time>
      </trkpt>
      <trkpt lat="49.26176" lon="4.02418">
        <ele>80</ele>
        <time>2021-05-04T06:11:31Z</time>
      </trkpt>
      <trkpt lat="49.26159" lon="4.02483">
        <ele>81</ele>
        <time>2021-05-04T06:11:40Z</time>
      </trkpt>
      <trkpt lat="49.26251" lon="4.02733">
        <ele>84</ele>
        <time>2021-05-04T06:12:13Z</time>
      </trkpt>
      <trkpt lat="49.26305" lon="4.02804">
        <ele>86</ele>
        <time>2021-05-04T06:12:26Z</time>
      </trkpt>
      <trkpt lat="49.26306" lon="4.02808">
        <ele>86</ele>
        <time>2021-05-04T06:12:26Z</time>
      </trkpt>
      <trkpt lat="49.263" lon="4.02823">
        <ele>87</ele>
        <time>2021-05-04T06:12:28Z</time>
      </trkpt>
      <trkpt lat="49.26261" lon="4.02855">
        <ele>87</ele>
        <time>2021-05-04T06:12:36Z</time>
      </trkpt>
      <trkpt lat="49.26226" lon="4.02889">
        <ele>88</ele>
        <time>2021-05-04T06:12:43Z</time>
      </trkpt>
      <trkpt lat="49.26194" lon="4.02916">
        <ele>89</ele>
        <time>2021-05-04T06:12:50Z</time>
      </trkpt>
      <trkpt lat="49.26171" lon="4.02942">
        <ele>89</ele>
        <time>2021-05-04T06:12:55Z</time>
      </trkpt>
      <trkpt lat="49.26128" lon="4.03017">
        <ele>88</ele>
        <time>2021-05-04T06:13:07Z</time>
      </trkpt>
      <trkpt lat="49.2613" lon="4.03022">
        <ele>88</ele>
        <time>2021-05-04T06:13:07Z</time>
      </trkpt>
      <trkpt lat="49.26126" lon="4.0303">
        <ele>88</ele>
        <time>2021-05-04T06:13:08Z</time>
      </trkpt>
      <trkpt lat="49.26118" lon="4.03064">
        <ele>88</ele>
        <time>2021-05-04T06:13:13Z</time>
      </trkpt>
      <trkpt lat="49.26124" lon="4.03275">
        <ele>89</ele>
        <time>2021-05-04T06:13:37Z</time>
      </trkpt>
      <trkpt lat="49.2612" lon="4.03346">
        <ele>90</ele>
        <time>2021-05-04T06:13:45Z</time>
      </trkpt>
      <trkpt lat="49.26054" lon="4.03531">
        <ele>93</ele>
        <time>2021-05-04T06:14:10Z</time>
      </trkpt>
      <trkpt lat="49.26048" lon="4.03546">
        <ele>93</ele>
        <time>2021-05-04T06:14:12Z</time>
      </trkpt>
      <trkpt lat="49.26024" lon="4.03589">
        <ele>93</ele>
        <time>2021-05-04T06:14:19Z</time>
      </trkpt>
      <trkpt lat="49.2595" lon="4.03668">
        <ele>93</ele>
        <time>2021-05-04T06:14:35Z</time>
      </trkpt>
      <trkpt lat="49.25914" lon="4.03713">
        <ele>91</ele>
        <time>2021-05-04T06:14:43Z</time>
      </trkpt>
      <trkpt lat="49.25831" lon="4.03803">
        <ele>91</ele>
        <time>2021-05-04T06:15:01Z</time>
      </trkpt>
      <trkpt lat="49.25805" lon="4.03823">
        <ele>91</ele>
        <time>2021-05-04T06:15:06Z</time>
      </trkpt>
      <trkpt lat="49.25769" lon="4.03865">
        <ele>91</ele>
        <time>2021-05-04T06:15:14Z</time>
      </trkpt>
      <trkpt lat="49.25758" lon="4.03875">
        <ele>91</ele>
        <time>2021-05-04T06:15:16Z</time>
      </trkpt>
      <trkpt lat="49.2575" lon="4.03876">
        <ele>90</ele>
        <time>2021-05-04T06:15:18Z</time>
      </trkpt>
      <trkpt lat="49.25725" lon="4.03896">
        <ele>90</ele>
        <time>2021-05-04T06:15:23Z</time>
      </trkpt>
      <trkpt lat="49.25706" lon="4.03918">
        <ele>89</ele>
        <time>2021-05-04T06:15:27Z</time>
      </trkpt>
      <trkpt lat="49.25659" lon="4.03941">
        <ele>89</ele>
        <time>2021-05-04T06:15:36Z</time>
      </trkpt>
      <trkpt lat="49.25613" lon="4.03969">
        <ele>90</ele>
        <time>2021-05-04T06:15:45Z</time>
      </trkpt>
      <trkpt lat="49.25566" lon="4.03989">
        <ele>91</ele>
        <time>2021-05-04T06:15:53Z</time>
      </trkpt>
      <trkpt lat="49.25525" lon="4.04014">
        <ele>93</ele>
        <time>2021-05-04T06:16:01Z</time>
      </trkpt>
      <trkpt lat="49.25474" lon="4.04037">
        <ele>93</ele>
        <time>2021-05-04T06:16:11Z</time>
      </trkpt>
      <trkpt lat="49.25431" lon="4.0406">
        <ele>92</ele>
        <time>2021-05-04T06:16:19Z</time>
      </trkpt>
      <trkpt lat="49.25342" lon="4.04096">
        <ele>93</ele>
        <time>2021-05-04T06:16:35Z</time>
      </trkpt>
      <trkpt lat="49.2529" lon="4.04123">
        <ele>92</ele>
        <time>2021-05-04T06:16:45Z</time>
      </trkpt>
      <trkpt lat="49.25242" lon="4.04139">
        <ele>92</ele>
        <time>2021-05-04T06:16:54Z</time>
      </trkpt>
      <trkpt lat="49.25168" lon="4.04178">
        <ele>94</ele>
        <time>2021-05-04T06:17:08Z</time>
      </trkpt>
      <trkpt lat="49.25111" lon="4.04202">
        <ele>94</ele>
        <time>2021-05-04T06:17:18Z</time>
      </trkpt>
      <trkpt lat="49.24929" lon="4.04298">
        <ele>94</ele>
        <time>2021-05-04T06:17:52Z</time>
      </trkpt>
      <trkpt lat="49.24836" lon="4.04336">
        <ele>93</ele>
        <time>2021-05-04T06:18:09Z</time>
      </trkpt>
      <trkpt lat="49.24715" lon="4.04395">
        <ele>96</ele>
        <time>2021-05-04T06:18:32Z</time>
      </trkpt>
      <trkpt lat="49.24661" lon="4.04427">
        <ele>97</ele>
        <time>2021-05-04T06:18:42Z</time>
      </trkpt>
      <trkpt lat="49.24531" lon="4.0449">
        <ele>102</ele>
        <time>2021-05-04T06:19:07Z</time>
      </trkpt>
      <trkpt lat="49.2448" lon="4.04518">
        <ele>104</ele>
        <time>2021-05-04T06:19:16Z</time>
      </trkpt>
      <trkpt lat="49.24434" lon="4.04535">
        <ele>104</ele>
        <time>2021-05-04T06:19:25Z</time>
      </trkpt>
      <trkpt lat="49.24386" lon="4.04549">
        <ele>104</ele>
        <time>2021-05-04T06:19:33Z</time>
      </trkpt>
      <trkpt lat="49.24338" lon="4.0455">
        <ele>104</ele>
        <time>2021-05-04T06:19:42Z</time>
      </trkpt>
      <trkpt lat="49.24249" lon="4.04529">
        <ele>103</ele>
        <time>2021-05-04T06:19:58Z</time>
      </trkpt>
      <trkpt lat="49.24213" lon="4.04517">
        <ele>102</ele>
        <time>2021-05-04T06:20:05Z</time>
      </trkpt>
      <trkpt lat="49.24167" lon="4.04513">
        <ele>100</ele>
        <time>2021-05-04T06:20:13Z</time>
      </trkpt>
      <trkpt lat="49.24156" lon="4.04526">
        <ele>101</ele>
        <time>2021-05-04T06:20:15Z</time>
      </trkpt>
      <trkpt lat="49.24149" lon="4.04539">
        <ele>101</ele>
        <time>2021-05-04T06:20:17Z</time>
      </trkpt>
      <trkpt lat="49.2412" lon="4.04556">
        <ele>102</ele>
        <time>2021-05-04T06:20:23Z</time>
      </trkpt>
      <trkpt lat="49.24087" lon="4.04542">
        <ele>101</ele>
        <time>2021-05-04T06:20:29Z</time>
      </trkpt>
      <trkpt lat="49.24071" lon="4.04522">
        <ele>100</ele>
        <time>2021-05-04T06:20:32Z</time>
      </trkpt>
      <trkpt lat="49.24055" lon="4.04523">
        <ele>100</ele>
        <time>2021-05-04T06:20:35Z</time>
      </trkpt>
      <trkpt lat="49.24044" lon="4.04516">
        <ele>99</ele>
        <time>2021-05-04T06:20:37Z</time>
      </trkpt>
      <trkpt lat="49.24004" lon="4.04543">
        <ele>99</ele>
        <time>2021-05-04T06:20:45Z</time>
      </trkpt>
      <trkpt lat="49.23862" lon="4.04688">
        <ele>106</ele>
        <time>2021-05-04T06:21:16Z</time>
      </trkpt>
      <trkpt lat="49.23858" lon="4.04703">
        <ele>106</ele>
        <time>2021-05-04T06:21:17Z</time>
      </trkpt>
      <trkpt lat="49.23803" lon="4.04792">
        <ele>105</ele>
        <time>2021-05-04T06:21:32Z</time>
      </trkpt>
      <trkpt lat="49.23721" lon="4.04905">
        <ele>103</ele>
        <time>2021-05-04T06:21:51Z</time>
      </trkpt>
      <trkpt lat="49.23685" lon="4.04959">
        <ele>100</ele>
        <time>2021-05-04T06:22:00Z</time>
      </trkpt>
      <trkpt lat="49.2363" lon="4.05074">
        <ele>99</ele>
        <time>2021-05-04T06:22:17Z</time>
      </trkpt>
      <trkpt lat="49.23588" lon="4.05205">
        <ele>95</ele>
        <time>2021-05-04T06:22:34Z</time>
      </trkpt>
      <trkpt lat="49.23585" lon="4.05207">
        <ele>95</ele>
        <time>2021-05-04T06:22:34Z</time>
      </trkpt>
      <trkpt lat="49.23549" lon="4.05165">
        <ele>93</ele>
        <time>2021-05-04T06:22:42Z</time>
      </trkpt>
      <trkpt lat="49.23334" lon="4.04885">
        <ele>85</ele>
        <time>2021-05-04T06:23:33Z</time>
      </trkpt>
      <trkpt lat="49.23293" lon="4.04856">
        <ele>84</ele>
        <time>2021-05-04T06:23:41Z</time>
      </trkpt>
      <trkpt lat="49.23262" lon="4.04839">
        <ele>83</ele>
        <time>2021-05-04T06:23:47Z</time>
      </trkpt>
      <trkpt lat="49.23146" lon="4.0484">
        <ele>83</ele>
        <time>2021-05-04T06:24:07Z</time>
      </trkpt>
      <trkpt lat="49.23118" lon="4.04842">
        <ele>82</ele>
        <time>2021-05-04T06:24:12Z</time>
      </trkpt>
      <trkpt lat="49.23103" lon="4.04848">
        <ele>82</ele>
        <time>2021-05-04T06:24:15Z</time>
      </trkpt>
      <trkpt lat="49.23083" lon="4.04911">
        <ele>81</ele>
        <time>2021-05-04T06:24:23Z</time>
      </trkpt>
      <trkpt lat="49.23067" lon="4.04983">
        <ele>80</ele>
        <time>2021-05-04T06:24:32Z</time>
      </trkpt>
      <trkpt lat="49.23043" lon="4.05046">
        <ele>79</ele>
        <time>2021-05-04T06:24:40Z</time>
      </trkpt>
      <trkpt lat="49.22982" lon="4.0517">
        <ele>80</ele>
        <time>2021-05-04T06:24:58Z</time>
      </trkpt>
      <trkpt lat="49.22945" lon="4.05211">
        <ele>80</ele>
        <time>2021-05-04T06:25:07Z</time>
      </trkpt>
      <trkpt lat="49.2291" lon="4.05242">
        <ele>80</ele>
        <time>2021-05-04T06:25:14Z</time>
      </trkpt>
      <trkpt lat="49.22817" lon="4.05311">
        <ele>83</ele>
        <time>2021-05-04T06:25:32Z</time>
      </trkpt>
      <trkpt lat="49.22772" lon="4.05332">
        <ele>83</ele>
        <time>2021-05-04T06:25:40Z</time>
      </trkpt>
      <trkpt lat="49.22726" lon="4.05347">
        <ele>83</ele>
        <time>2021-05-04T06:25:49Z</time>
      </trkpt>
      <trkpt lat="49.22684" lon="4.05357">
        <ele>83</ele>
        <time>2021-05-04T06:25:56Z</time>
      </trkpt>
      <trkpt lat="49.22646" lon="4.05346">
        <ele>83</ele>
        <time>2021-05-04T06:26:03Z</time>
      </trkpt>
      <trkpt lat="49.22613" lon="4.05313">
        <ele>81</ele>
        <time>2021-05-04T06:26:10Z</time>
      </trkpt>
      <trkpt lat="49.22562" lon="4.05268">
        <ele>80</ele>
        <time>2021-05-04T06:26:21Z</time>
      </trkpt>
      <trkpt lat="49.22512" lon="4.05239">
        <ele>81</ele>
        <time>2021-05-04T06:26:30Z</time>
      </trkpt>
      <trkpt lat="49.22249" lon="4.05066">
        <ele>87</ele>
        <time>2021-05-04T06:27:21Z</time>
      </trkpt>
      <trkpt lat="49.22239" lon="4.05052">
        <ele>88</ele>
        <time>2021-05-04T06:27:24Z</time>
      </trkpt>
      <trkpt lat="49.22231" lon="4.05056">
        <ele>88</ele>
        <time>2021-05-04T06:27:25Z</time>
      </trkpt>
      <trkpt lat="49.22186" lon="4.05062">
        <ele>90</ele>
        <time>2021-05-04T06:27:33Z</time>
      </trkpt>
      <trkpt lat="49.22047" lon="4.0507">
        <ele>95</ele>
        <time>2021-05-04T06:27:58Z</time>
      </trkpt>
      <trkpt lat="49.21904" lon="4.05071">
        <ele>95</ele>
        <time>2021-05-04T06:28:23Z</time>
      </trkpt>
      <trkpt lat="49.21802" lon="4.05076">
        <ele>91</ele>
        <time>2021-05-04T06:28:42Z</time>
      </trkpt>
      <trkpt lat="49.21667" lon="4.0507">
        <ele>88</ele>
        <time>2021-05-04T06:29:06Z</time>
      </trkpt>
      <trkpt lat="49.21642" lon="4.05049">
        <ele>89</ele>
        <time>2021-05-04T06:29:11Z</time>
      </trkpt>
      <trkpt lat="49.21627" lon="4.05051">
        <ele>89</ele>
        <time>2021-05-04T06:29:13Z</time>
      </trkpt>
      <trkpt lat="49.21596" lon="4.05075">
        <ele>87</ele>
        <time>2021-05-04T06:29:19Z</time>
      </trkpt>
      <trkpt lat="49.21548" lon="4.05078">
        <ele>87</ele>
        <time>2021-05-04T06:29:28Z</time>
      </trkpt>
      <trkpt lat="49.21513" lon="4.05078">
        <ele>87</ele>
        <time>2021-05-04T06:29:34Z</time>
      </trkpt>
      <trkpt lat="49.21492" lon="4.05068">
        <ele>87</ele>
        <time>2021-05-04T06:29:38Z</time>
      </trkpt>
      <trkpt lat="49.21467" lon="4.05079">
        <ele>88</ele>
        <time>2021-05-04T06:29:43Z</time>
      </trkpt>
      <trkpt lat="49.21326" lon="4.05081">
        <ele>92</ele>
        <time>2021-05-04T06:30:08Z</time>
      </trkpt>
      <trkpt lat="49.21229" lon="4.05085">
        <ele>97</ele>
        <time>2021-05-04T06:30:25Z</time>
      </trkpt>
      <trkpt lat="49.2119" lon="4.05083">
        <ele>97</ele>
        <time>2021-05-04T06:30:32Z</time>
      </trkpt>
      <trkpt lat="49.21169" lon="4.05071">
        <ele>97</ele>
        <time>2021-05-04T06:30:36Z</time>
      </trkpt>
      <trkpt lat="49.21126" lon="4.05088">
        <ele>97</ele>
        <time>2021-05-04T06:30:44Z</time>
      </trkpt>
      <trkpt lat="49.21077" lon="4.05087">
        <ele>96</ele>
        <time>2021-05-04T06:30:53Z</time>
      </trkpt>
      <trkpt lat="49.21031" lon="4.0509">
        <ele>97</ele>
        <time>2021-05-04T06:31:01Z</time>
      </trkpt>
      <trkpt lat="49.20983" lon="4.0509">
        <ele>98</ele>
        <time>2021-05-04T06:31:09Z</time>
      </trkpt>
      <trkpt lat="49.20958" lon="4.05078">
        <ele>98</ele>
        <time>2021-05-04T06:31:14Z</time>
      </trkpt>
      <trkpt lat="49.20904" lon="4.05095">
        <ele>100</ele>
        <time>2021-05-04T06:31:24Z</time>
      </trkpt>
      <trkpt lat="49.20855" lon="4.05094">
        <ele>104</ele>
        <time>2021-05-04T06:31:33Z</time>
      </trkpt>
      <trkpt lat="49.20808" lon="4.05099">
        <ele>105</ele>
        <time>2021-05-04T06:31:41Z</time>
      </trkpt>
      <trkpt lat="49.20771" lon="4.05098">
        <ele>105</ele>
        <time>2021-05-04T06:31:48Z</time>
      </trkpt>
      <trkpt lat="49.20714" lon="4.05086">
        <ele>105</ele>
        <time>2021-05-04T06:31:58Z</time>
      </trkpt>
      <trkpt lat="49.2067" lon="4.05062">
        <ele>105</ele>
        <time>2021-05-04T06:32:06Z</time>
      </trkpt>
      <trkpt lat="49.20588" lon="4.04996">
        <ele>108</ele>
        <time>2021-05-04T06:32:23Z</time>
      </trkpt>
      <trkpt lat="49.20543" lon="4.04975">
        <ele>111</ele>
        <time>2021-05-04T06:32:31Z</time>
      </trkpt>
      <trkpt lat="49.20498" lon="4.04966">
        <ele>114</ele>
        <time>2021-05-04T06:32:39Z</time>
      </trkpt>
      <trkpt lat="49.20452" lon="4.04966">
        <ele>116</ele>
        <time>2021-05-04T06:32:47Z</time>
      </trkpt>
      <trkpt lat="49.20404" lon="4.04978">
        <ele>118</ele>
        <time>2021-05-04T06:32:56Z</time>
      </trkpt>
      <trkpt lat="49.20358" lon="4.05001">
        <ele>120</ele>
        <time>2021-05-04T06:33:05Z</time>
      </trkpt>
      <trkpt lat="49.20315" lon="4.05036">
        <ele>123</ele>
        <time>2021-05-04T06:33:13Z</time>
      </trkpt>
      <trkpt lat="49.20279" lon="4.05069">
        <ele>125</ele>
        <time>2021-05-04T06:33:21Z</time>
      </trkpt>
      <trkpt lat="49.20241" lon="4.05094">
        <ele>126</ele>
        <time>2021-05-04T06:33:28Z</time>
      </trkpt>
      <trkpt lat="49.20144" lon="4.05119">
        <ele>120</ele>
        <time>2021-05-04T06:33:46Z</time>
      </trkpt>
      <trkpt lat="49.19956" lon="4.05155">
        <ele>120</ele>
        <time>2021-05-04T06:34:19Z</time>
      </trkpt>
      <trkpt lat="49.19862" lon="4.05175">
        <ele>122</ele>
        <time>2021-05-04T06:34:36Z</time>
      </trkpt>
      <trkpt lat="49.19821" lon="4.05186">
        <ele>122</ele>
        <time>2021-05-04T06:34:44Z</time>
      </trkpt>
      <trkpt lat="49.19774" lon="4.05192">
        <ele>123</ele>
        <time>2021-05-04T06:34:52Z</time>
      </trkpt>
      <trkpt lat="49.19534" lon="4.05241">
        <ele>129</ele>
        <time>2021-05-04T06:35:35Z</time>
      </trkpt>
      <trkpt lat="49.19437" lon="4.05257">
        <ele>132</ele>
        <time>2021-05-04T06:35:52Z</time>
      </trkpt>
      <trkpt lat="49.19389" lon="4.05271">
        <ele>134</ele>
        <time>2021-05-04T06:36:01Z</time>
      </trkpt>
      <trkpt lat="49.19299" lon="4.05304">
        <ele>138</ele>
        <time>2021-05-04T06:36:18Z</time>
      </trkpt>
      <trkpt lat="49.19216" lon="4.05341">
        <ele>142</ele>
        <time>2021-05-04T06:36:33Z</time>
      </trkpt>
      <trkpt lat="49.19159" lon="4.05361">
        <ele>143</ele>
        <time>2021-05-04T06:36:43Z</time>
      </trkpt>
      <trkpt lat="49.19068" lon="4.05398">
        <ele>144</ele>
        <time>2021-05-04T06:37:00Z</time>
      </trkpt>
      <trkpt lat="49.18944" lon="4.05456">
        <ele>145</ele>
        <time>2021-05-04T06:37:23Z</time>
      </trkpt>
      <trkpt lat="49.18897" lon="4.0547">
        <ele>145</ele>
        <time>2021-05-04T06:37:32Z</time>
      </trkpt>
      <trkpt lat="49.18839" lon="4.05481">
        <ele>146</ele>
        <time>2021-05-04T06:37:42Z</time>
      </trkpt>
      <trkpt lat="49.18751" lon="4.05476">
        <ele>145</ele>
        <time>2021-05-04T06:37:58Z</time>
      </trkpt>
      <trkpt lat="49.18697" lon="4.05477">
        <ele>148</ele>
        <time>2021-05-04T06:38:07Z</time>
      </trkpt>
      <trkpt lat="49.18503" lon="4.05462">
        <ele>149</ele>
        <time>2021-05-04T06:38:42Z</time>
      </trkpt>
      <trkpt lat="49.18406" lon="4.05458">
        <ele>144</ele>
        <time>2021-05-04T06:38:59Z</time>
      </trkpt>
      <trkpt lat="49.18373" lon="4.05463">
        <ele>141</ele>
        <time>2021-05-04T06:39:05Z</time>
      </trkpt>
      <trkpt lat="49.18339" lon="4.05487">
        <ele>139</ele>
        <time>2021-05-04T06:39:12Z</time>
      </trkpt>
      <trkpt lat="49.18288" lon="4.05533">
        <ele>135</ele>
        <time>2021-05-04T06:39:22Z</time>
      </trkpt>
      <trkpt lat="49.18246" lon="4.05546">
        <ele>132</ele>
        <time>2021-05-04T06:39:30Z</time>
      </trkpt>
      <trkpt lat="49.18138" lon="4.05526">
        <ele>126</ele>
        <time>2021-05-04T06:39:49Z</time>
      </trkpt>
      <trkpt lat="49.18082" lon="4.05497">
        <ele>123</ele>
        <time>2021-05-04T06:40:00Z</time>
      </trkpt>
      <trkpt lat="49.18004" lon="4.05448">
        <ele>122</ele>
        <time>2021-05-04T06:40:15Z</time>
      </trkpt>
      <trkpt lat="49.17916" lon="4.05399">
        <ele>122</ele>
        <time>2021-05-04T06:40:31Z</time>
      </trkpt>
      <trkpt lat="49.17877" lon="4.05374">
        <ele>122</ele>
        <time>2021-05-04T06:40:39Z</time>
      </trkpt>
      <trkpt lat="49.17787" lon="4.05325">
        <ele>123</ele>
        <time>2021-05-04T06:40:56Z</time>
      </trkpt>
      <trkpt lat="49.17658" lon="4.05244">
        <ele>123</ele>
        <time>2021-05-04T06:41:21Z</time>
      </trkpt>
      <trkpt lat="49.17609" lon="4.05221">
        <ele>123</ele>
        <time>2021-05-04T06:41:30Z</time>
      </trkpt>
      <trkpt lat="49.17566" lon="4.05196">
        <ele>122</ele>
        <time>2021-05-04T06:41:38Z</time>
      </trkpt>
      <trkpt lat="49.17384" lon="4.05121">
        <ele>124</ele>
        <time>2021-05-04T06:42:12Z</time>
      </trkpt>
      <trkpt lat="49.17298" lon="4.0509">
        <ele>125</ele>
        <time>2021-05-04T06:42:27Z</time>
      </trkpt>
      <trkpt lat="49.17249" lon="4.05065">
        <ele>126</ele>
        <time>2021-05-04T06:42:37Z</time>
      </trkpt>
      <trkpt lat="49.17162" lon="4.05009">
        <ele>127</ele>
        <time>2021-05-04T06:42:53Z</time>
      </trkpt>
      <trkpt lat="49.17127" lon="4.0499">
        <ele>128</ele>
        <time>2021-05-04T06:43:00Z</time>
      </trkpt>
      <trkpt lat="49.16982" lon="4.04927">
        <ele>133</ele>
        <time>2021-05-04T06:43:27Z</time>
      </trkpt>
      <trkpt lat="49.16899" lon="4.04873">
        <ele>137</ele>
        <time>2021-05-04T06:43:43Z</time>
      </trkpt>
      <trkpt lat="49.16814" lon="4.04814">
        <ele>142</ele>
        <time>2021-05-04T06:43:59Z</time>
      </trkpt>
      <trkpt lat="49.16644" lon="4.04709">
        <ele>154</ele>
        <time>2021-05-04T06:44:32Z</time>
      </trkpt>
      <trkpt lat="49.16604" lon="4.04676">
        <ele>155</ele>
        <time>2021-05-04T06:44:40Z</time>
      </trkpt>
      <trkpt lat="49.16554" lon="4.04655">
        <ele>158</ele>
        <time>2021-05-04T06:44:49Z</time>
      </trkpt>
      <trkpt lat="49.16512" lon="4.04625">
        <ele>161</ele>
        <time>2021-05-04T06:44:58Z</time>
      </trkpt>
      <trkpt lat="49.16466" lon="4.04607">
        <ele>163</ele>
        <time>2021-05-04T06:45:06Z</time>
      </trkpt>
      <trkpt lat="49.1642" lon="4.04593">
        <ele>166</ele>
        <time>2021-05-04T06:45:14Z</time>
      </trkpt>
      <trkpt lat="49.16375" lon="4.04593">
        <ele>169</ele>
        <time>2021-05-04T06:45:22Z</time>
      </trkpt>
      <trkpt lat="49.16354" lon="4.0459">
        <ele>170</ele>
        <time>2021-05-04T06:45:26Z</time>
      </trkpt>
      <trkpt lat="49.16349" lon="4.04601">
        <ele>171</ele>
        <time>2021-05-04T06:45:28Z</time>
      </trkpt>
      <trkpt lat="49.16348" lon="4.04675">
        <ele>170</ele>
        <time>2021-05-04T06:45:36Z</time>
      </trkpt>
      <trkpt lat="49.16352" lon="4.04736">
        <ele>169</ele>
        <time>2021-05-04T06:45:43Z</time>
      </trkpt>
      <trkpt lat="49.16352" lon="4.04788">
        <ele>169</ele>
        <time>2021-05-04T06:45:49Z</time>
      </trkpt>
      <trkpt lat="49.16355" lon="4.04797">
        <ele>169</ele>
        <time>2021-05-04T06:45:51Z</time>
      </trkpt>
      <trkpt lat="49.16357" lon="4.04824">
        <ele>168</ele>
        <time>2021-05-04T06:45:54Z</time>
      </trkpt>
      <trkpt lat="49.16353" lon="4.04853">
        <ele>169</ele>
        <time>2021-05-04T06:45:57Z</time>
      </trkpt>
      <trkpt lat="49.16355" lon="4.0486">
        <ele>169</ele>
        <time>2021-05-04T06:45:58Z</time>
      </trkpt>
      <trkpt lat="49.16356" lon="4.04898">
        <ele>169</ele>
        <time>2021-05-04T06:46:03Z</time>
      </trkpt>
      <trkpt lat="49.16353" lon="4.04918">
        <ele>170</ele>
        <time>2021-05-04T06:46:05Z</time>
      </trkpt>
      <trkpt lat="49.16341" lon="4.0496">
        <ele>170</ele>
        <time>2021-05-04T06:46:10Z</time>
      </trkpt>
      <trkpt lat="49.16293" lon="4.0506">
        <ele>170</ele>
        <time>2021-05-04T06:46:25Z</time>
      </trkpt>
      <trkpt lat="49.16269" lon="4.05092">
        <ele>169</ele>
        <time>2021-05-04T06:46:30Z</time>
      </trkpt>
      <trkpt lat="49.16259" lon="4.05116">
        <ele>168</ele>
        <time>2021-05-04T06:46:34Z</time>
      </trkpt>
      <trkpt lat="49.16255" lon="4.05143">
        <ele>167</ele>
        <time>2021-05-04T06:46:37Z</time>
      </trkpt>
      <trkpt lat="49.16245" lon="4.05163">
        <ele>165</ele>
        <time>2021-05-04T06:46:40Z</time>
      </trkpt>
      <trkpt lat="49.16194" lon="4.05258">
        <ele>160</ele>
        <time>2021-05-04T06:46:54Z</time>
      </trkpt>
      <trkpt lat="49.16058" lon="4.05525">
        <ele>149</ele>
        <time>2021-05-04T06:47:34Z</time>
      </trkpt>
      <trkpt lat="49.15984" lon="4.05662">
        <ele>152</ele>
        <time>2021-05-04T06:47:54Z</time>
      </trkpt>
      <trkpt lat="49.15957" lon="4.05721">
        <ele>152</ele>
        <time>2021-05-04T06:48:03Z</time>
      </trkpt>
      <trkpt lat="49.15945" lon="4.05757">
        <ele>151</ele>
        <time>2021-05-04T06:48:07Z</time>
      </trkpt>
      <trkpt lat="49.15942" lon="4.05776">
        <ele>150</ele>
        <time>2021-05-04T06:48:10Z</time>
      </trkpt>
      <trkpt lat="49.15899" lon="4.05895">
        <ele>146</ele>
        <time>2021-05-04T06:48:25Z</time>
      </trkpt>
      <trkpt lat="49.15788" lon="4.06133">
        <ele>148</ele>
        <time>2021-05-04T06:48:59Z</time>
      </trkpt>
      <trkpt lat="49.15761" lon="4.06177">
        <ele>149</ele>
        <time>2021-05-04T06:49:06Z</time>
      </trkpt>
      <trkpt lat="49.15727" lon="4.06224">
        <ele>151</ele>
        <time>2021-05-04T06:49:15Z</time>
      </trkpt>
      <trkpt lat="49.15694" lon="4.06265">
        <ele>153</ele>
        <time>2021-05-04T06:49:22Z</time>
      </trkpt>
      <trkpt lat="49.15669" lon="4.0629">
        <ele>153</ele>
        <time>2021-05-04T06:49:27Z</time>
      </trkpt>
      <trkpt lat="49.15666" lon="4.06314">
        <ele>153</ele>
        <time>2021-05-04T06:49:30Z</time>
      </trkpt>
      <trkpt lat="49.15672" lon="4.06331">
        <ele>153</ele>
        <time>2021-05-04T06:49:33Z</time>
      </trkpt>
      <trkpt lat="49.15685" lon="4.06343">
        <ele>152</ele>
        <time>2021-05-04T06:49:35Z</time>
      </trkpt>
      <trkpt lat="49.15693" lon="4.06345">
        <ele>152</ele>
        <time>2021-05-04T06:49:37Z</time>
      </trkpt>
      <trkpt lat="49.15743" lon="4.06408">
        <ele>151</ele>
        <time>2021-05-04T06:49:48Z</time>
      </trkpt>
      <trkpt lat="49.15751" lon="4.06433">
        <ele>152</ele>
        <time>2021-05-04T06:49:51Z</time>
      </trkpt>
      <trkpt lat="49.1575" lon="4.06441">
        <ele>152</ele>
        <time>2021-05-04T06:49:52Z</time>
      </trkpt>
      <trkpt lat="49.15745" lon="4.06448">
        <ele>153</ele>
        <time>2021-05-04T06:49:54Z</time>
      </trkpt>
      <trkpt lat="49.15746" lon="4.0647">
        <ele>154</ele>
        <time>2021-05-04T06:49:56Z</time>
      </trkpt>
      <trkpt lat="49.15742" lon="4.06517">
        <ele>156</ele>
        <time>2021-05-04T06:50:02Z</time>
      </trkpt>
      <trkpt lat="49.15748" lon="4.06561">
        <ele>159</ele>
        <time>2021-05-04T06:50:07Z</time>
      </trkpt>
      <trkpt lat="49.15718" lon="4.06756">
        <ele>162</ele>
        <time>2021-05-04T06:50:30Z</time>
      </trkpt>
      <trkpt lat="49.15694" lon="4.06896">
        <ele>155</ele>
        <time>2021-05-04T06:50:47Z</time>
      </trkpt>
      <trkpt lat="49.15685" lon="4.06934">
        <ele>153</ele>
        <time>2021-05-04T06:50:52Z</time>
      </trkpt>
      <trkpt lat="49.15643" lon="4.07212">
        <ele>145</ele>
        <time>2021-05-04T06:51:25Z</time>
      </trkpt>
      <trkpt lat="49.15596" lon="4.07545">
        <ele>144</ele>
        <time>2021-05-04T06:52:05Z</time>
      </trkpt>
      <trkpt lat="49.15599" lon="4.07556">
        <ele>144</ele>
        <time>2021-05-04T06:52:06Z</time>
      </trkpt>
      <trkpt lat="49.15585" lon="4.07623">
        <ele>144</ele>
        <time>2021-05-04T06:52:14Z</time>
      </trkpt>
      <trkpt lat="49.15568" lon="4.0768">
        <ele>144</ele>
        <time>2021-05-04T06:52:21Z</time>
      </trkpt>
      <trkpt lat="49.15536" lon="4.07839">
        <ele>146</ele>
        <time>2021-05-04T06:52:41Z</time>
      </trkpt>
      <trkpt lat="49.15533" lon="4.07869">
        <ele>146</ele>
        <time>2021-05-04T06:52:44Z</time>
      </trkpt>
      <trkpt lat="49.15528" lon="4.07885">
        <ele>146</ele>
        <time>2021-05-04T06:52:46Z</time>
      </trkpt>
      <trkpt lat="49.15527" lon="4.0791">
        <ele>146</ele>
        <time>2021-05-04T06:52:49Z</time>
      </trkpt>
      <trkpt lat="49.15516" lon="4.0795">
        <ele>147</ele>
        <time>2021-05-04T06:52:54Z</time>
      </trkpt>
      <trkpt lat="49.15515" lon="4.07963">
        <ele>147</ele>
        <time>2021-05-04T06:52:56Z</time>
      </trkpt>
      <trkpt lat="49.15511" lon="4.07968">
        <ele>147</ele>
        <time>2021-05-04T06:52:57Z</time>
      </trkpt>
      <trkpt lat="49.15504" lon="4.07996">
        <ele>148</ele>
        <time>2021-05-04T06:53:00Z</time>
      </trkpt>
      <trkpt lat="49.15486" lon="4.07999">
        <ele>149</ele>
        <time>2021-05-04T06:53:04Z</time>
      </trkpt>
      <trkpt lat="49.15439" lon="4.07981">
        <ele>151</ele>
        <time>2021-05-04T06:53:12Z</time>
      </trkpt>
      <trkpt lat="49.15396" lon="4.07985">
        <ele>154</ele>
        <time>2021-05-04T06:53:20Z</time>
      </trkpt>
      <trkpt lat="49.15353" lon="4.08018">
        <ele>157</ele>
        <time>2021-05-04T06:53:28Z</time>
      </trkpt>
      <trkpt lat="49.15307" lon="4.08029">
        <ele>161</ele>
        <time>2021-05-04T06:53:37Z</time>
      </trkpt>
      <trkpt lat="49.15266" lon="4.08055">
        <ele>166</ele>
        <time>2021-05-04T06:53:45Z</time>
      </trkpt>
      <trkpt lat="49.15241" lon="4.08118">
        <ele>170</ele>
        <time>2021-05-04T06:53:53Z</time>
      </trkpt>
      <trkpt lat="49.15202" lon="4.08157">
        <ele>175</ele>
        <time>2021-05-04T06:54:01Z</time>
      </trkpt>
      <trkpt lat="49.15158" lon="4.08166">
        <ele>182</ele>
        <time>2021-05-04T06:54:09Z</time>
      </trkpt>
      <trkpt lat="49.15125" lon="4.08144">
        <ele>191</ele>
        <time>2021-05-04T06:54:16Z</time>
      </trkpt>
      <trkpt lat="49.15083" lon="4.08098">
        <ele>201</ele>
        <time>2021-05-04T06:54:25Z</time>
      </trkpt>
      <trkpt lat="49.15043" lon="4.08046">
        <ele>206</ele>
        <time>2021-05-04T06:54:34Z</time>
      </trkpt>
      <trkpt lat="49.15" lon="4.08066">
        <ele>214</ele>
        <time>2021-05-04T06:54:42Z</time>
      </trkpt>
      <trkpt lat="49.14951" lon="4.08104">
        <ele>219</ele>
        <time>2021-05-04T06:54:52Z</time>
      </trkpt>
      <trkpt lat="49.14916" lon="4.08104">
        <ele>224</ele>
        <time>2021-05-04T06:54:58Z</time>
      </trkpt>
      <trkpt lat="49.14828" lon="4.0806">
        <ele>238</ele>
        <time>2021-05-04T06:55:15Z</time>
      </trkpt>
      <trkpt lat="49.14786" lon="4.08044">
        <ele>243</ele>
        <time>2021-05-04T06:55:22Z</time>
      </trkpt>
      <trkpt lat="49.14738" lon="4.08048">
        <ele>249</ele>
        <time>2021-05-04T06:55:31Z</time>
      </trkpt>
      <trkpt lat="49.14695" lon="4.08074">
        <ele>254</ele>
        <time>2021-05-04T06:55:39Z</time>
      </trkpt>
      <trkpt lat="49.14654" lon="4.08105">
        <ele>259</ele>
        <time>2021-05-04T06:55:47Z</time>
      </trkpt>
      <trkpt lat="49.1461" lon="4.08088">
        <ele>264</ele>
        <time>2021-05-04T06:55:55Z</time>
      </trkpt>
      <trkpt lat="49.14569" lon="4.08059">
        <ele>269</ele>
        <time>2021-05-04T06:56:03Z</time>
      </trkpt>
      <trkpt lat="49.14545" lon="4.08">
        <ele>273</ele>
        <time>2021-05-04T06:56:12Z</time>
      </trkpt>
      <trkpt lat="49.14495" lon="4.078">
        <ele>279</ele>
        <time>2021-05-04T06:56:36Z</time>
      </trkpt>
      <trkpt lat="49.14474" lon="4.07737">
        <ele>277</ele>
        <time>2021-05-04T06:56:45Z</time>
      </trkpt>
      <trkpt lat="49.14456" lon="4.0767">
        <ele>277</ele>
        <time>2021-05-04T06:56:53Z</time>
      </trkpt>
      <trkpt lat="49.14452" lon="4.07662">
        <ele>277</ele>
        <time>2021-05-04T06:56:54Z</time>
      </trkpt>
      <trkpt lat="49.14448" lon="4.07659">
        <ele>278</ele>
        <time>2021-05-04T06:56:55Z</time>
      </trkpt>
      <trkpt lat="49.14444" lon="4.0766">
        <ele>278</ele>
        <time>2021-05-04T06:56:56Z</time>
      </trkpt>
      <trkpt lat="49.14453" lon="4.0768">
        <ele>277</ele>
        <time>2021-05-04T06:56:59Z</time>
      </trkpt>
      <trkpt lat="49.14482" lon="4.07771">
        <ele>278</ele>
        <time>2021-05-04T06:57:10Z</time>
      </trkpt>
      <trkpt lat="49.14482" lon="4.07789">
        <ele>278</ele>
        <time>2021-05-04T06:57:13Z</time>
      </trkpt>
      <trkpt lat="49.1451" lon="4.07851">
        <ele>279</ele>
        <time>2021-05-04T06:57:21Z</time>
      </trkpt>
      <trkpt lat="49.14511" lon="4.07863">
        <ele>279</ele>
        <time>2021-05-04T06:57:23Z</time>
      </trkpt>
      <trkpt lat="49.14509" lon="4.07872">
        <ele>279</ele>
        <time>2021-05-04T06:57:24Z</time>
      </trkpt>
      <trkpt lat="49.1453" lon="4.07934">
        <ele>276</ele>
        <time>2021-05-04T06:57:32Z</time>
      </trkpt>
      <trkpt lat="49.14521" lon="4.07957">
        <ele>276</ele>
        <time>2021-05-04T06:57:35Z</time>
      </trkpt>
      <trkpt lat="49.14527" lon="4.07969">
        <ele>275</ele>
        <time>2021-05-04T06:57:37Z</time>
      </trkpt>
      <trkpt lat="49.14536" lon="4.07975">
        <ele>274</ele>
        <time>2021-05-04T06:57:39Z</time>
      </trkpt>
      <trkpt lat="49.14556" lon="4.08045">
        <ele>271</ele>
        <time>2021-05-04T06:57:47Z</time>
      </trkpt>
      <trkpt lat="49.14588" lon="4.08073">
        <ele>267</ele>
        <time>2021-05-04T06:57:54Z</time>
      </trkpt>
      <trkpt lat="49.14629" lon="4.08097">
        <ele>262</ele>
        <time>2021-05-04T06:58:02Z</time>
      </trkpt>
      <trkpt lat="49.14649" lon="4.08105">
        <ele>259</ele>
        <time>2021-05-04T06:58:06Z</time>
      </trkpt>
      <trkpt lat="49.14654" lon="4.08105">
        <ele>259</ele>
        <time>2021-05-04T06:58:06Z</time>
      </trkpt>
      <trkpt lat="49.14746" lon="4.08047">
        <ele>248</ele>
        <time>2021-05-04T06:58:24Z</time>
      </trkpt>
      <trkpt lat="49.14766" lon="4.08041">
        <ele>246</ele>
        <time>2021-05-04T06:58:28Z</time>
      </trkpt>
      <trkpt lat="49.14814" lon="4.08053">
        <ele>240</ele>
        <time>2021-05-04T06:58:36Z</time>
      </trkpt>
      <trkpt lat="49.14851" lon="4.08072">
        <ele>234</ele>
        <time>2021-05-04T06:58:43Z</time>
      </trkpt>
      <trkpt lat="49.14881" lon="4.0808">
        <ele>230</ele>
        <time>2021-05-04T06:58:49Z</time>
      </trkpt>
      <trkpt lat="49.14797" lon="4.08048">
        <ele>242</ele>
        <time>2021-05-04T06:59:04Z</time>
      </trkpt>
      <trkpt lat="49.14738" lon="4.08051">
        <ele>249</ele>
        <time>2021-05-04T06:59:15Z</time>
      </trkpt>
      <trkpt lat="49.14728" lon="4.08055">
        <ele>250</ele>
        <time>2021-05-04T06:59:17Z</time>
      </trkpt>
      <trkpt lat="49.14688" lon="4.08093">
        <ele>255</ele>
        <time>2021-05-04T06:59:25Z</time>
      </trkpt>
      <trkpt lat="49.14643" lon="4.08104">
        <ele>260</ele>
        <time>2021-05-04T06:59:33Z</time>
      </trkpt>
      <trkpt lat="49.14598" lon="4.08086">
        <ele>265</ele>
        <time>2021-05-04T06:59:41Z</time>
      </trkpt>
      <trkpt lat="49.14556" lon="4.0805">
        <ele>270</ele>
        <time>2021-05-04T06:59:50Z</time>
      </trkpt>
      <trkpt lat="49.1453" lon="4.07994">
        <ele>274</ele>
        <time>2021-05-04T06:59:58Z</time>
      </trkpt>
      <trkpt lat="49.14507" lon="4.07931">
        <ele>278</ele>
        <time>2021-05-04T07:00:06Z</time>
      </trkpt>
      <trkpt lat="49.14497" lon="4.07864">
        <ele>280</ele>
        <time>2021-05-04T07:00:14Z</time>
      </trkpt>
      <trkpt lat="49.14478" lon="4.07799">
        <ele>279</ele>
        <time>2021-05-04T07:00:23Z</time>
      </trkpt>
      <trkpt lat="49.14467" lon="4.07738">
        <ele>277</ele>
        <time>2021-05-04T07:00:30Z</time>
      </trkpt>
      <trkpt lat="49.14449" lon="4.07668">
        <ele>277</ele>
        <time>2021-05-04T07:00:39Z</time>
      </trkpt>
      <trkpt lat="49.1442" lon="4.07608">
        <ele>280</ele>
        <time>2021-05-04T07:00:47Z</time>
      </trkpt>
      <trkpt lat="49.14381" lon="4.07569">
        <ele>281</ele>
        <time>2021-05-04T07:00:56Z</time>
      </trkpt>
      <trkpt lat="49.14349" lon="4.07525">
        <ele>283</ele>
        <time>2021-05-04T07:01:03Z</time>
      </trkpt>
      <trkpt lat="49.14247" lon="4.07356">
        <ele>284</ele>
        <time>2021-05-04T07:01:30Z</time>
      </trkpt>
      <trkpt lat="49.14201" lon="4.07338">
        <ele>284</ele>
        <time>2021-05-04T07:01:38Z</time>
      </trkpt>
      <trkpt lat="49.1407" lon="4.07314">
        <ele>282</ele>
        <time>2021-05-04T07:02:02Z</time>
      </trkpt>
      <trkpt lat="49.14011" lon="4.07314">
        <ele>283</ele>
        <time>2021-05-04T07:02:12Z</time>
      </trkpt>
      <trkpt lat="49.13982" lon="4.07311">
        <ele>283</ele>
        <time>2021-05-04T07:02:18Z</time>
      </trkpt>
      <trkpt lat="49.13964" lon="4.07304">
        <ele>282</ele>
        <time>2021-05-04T07:02:21Z</time>
      </trkpt>
      <trkpt lat="49.1389" lon="4.07296">
        <ele>281</ele>
        <time>2021-05-04T07:02:34Z</time>
      </trkpt>
      <trkpt lat="49.13854" lon="4.07288">
        <ele>280</ele>
        <time>2021-05-04T07:02:41Z</time>
      </trkpt>
      <trkpt lat="49.13844" lon="4.0728">
        <ele>280</ele>
        <time>2021-05-04T07:02:43Z</time>
      </trkpt>
      <trkpt lat="49.13751" lon="4.07263">
        <ele>281</ele>
        <time>2021-05-04T07:02:59Z</time>
      </trkpt>
      <trkpt lat="49.13704" lon="4.07252">
        <ele>280</ele>
        <time>2021-05-04T07:03:08Z</time>
      </trkpt>
      <trkpt lat="49.13596" lon="4.0724">
        <ele>279</ele>
        <time>2021-05-04T07:03:27Z</time>
      </trkpt>
      <trkpt lat="49.13582" lon="4.07237">
        <ele>279</ele>
        <time>2021-05-04T07:03:30Z</time>
      </trkpt>
      <trkpt lat="49.13573" lon="4.07232">
        <ele>278</ele>
        <time>2021-05-04T07:03:31Z</time>
      </trkpt>
      <trkpt lat="49.13556" lon="4.07235">
        <ele>277</ele>
        <time>2021-05-04T07:03:34Z</time>
      </trkpt>
      <trkpt lat="49.13531" lon="4.07227">
        <ele>276</ele>
        <time>2021-05-04T07:03:39Z</time>
      </trkpt>
      <trkpt lat="49.1349" lon="4.0722">
        <ele>275</ele>
        <time>2021-05-04T07:03:46Z</time>
      </trkpt>
      <trkpt lat="49.13359" lon="4.07203">
        <ele>272</ele>
        <time>2021-05-04T07:04:10Z</time>
      </trkpt>
      <trkpt lat="49.13303" lon="4.07188">
        <ele>272</ele>
        <time>2021-05-04T07:04:20Z</time>
      </trkpt>
      <trkpt lat="49.13261" lon="4.0718">
        <ele>272</ele>
        <time>2021-05-04T07:04:27Z</time>
      </trkpt>
      <trkpt lat="49.13201" lon="4.07174">
        <ele>273</ele>
        <time>2021-05-04T07:04:38Z</time>
      </trkpt>
      <trkpt lat="49.13159" lon="4.07166">
        <ele>273</ele>
        <time>2021-05-04T07:04:45Z</time>
      </trkpt>
      <trkpt lat="49.1311" lon="4.07163">
        <ele>271</ele>
        <time>2021-05-04T07:04:54Z</time>
      </trkpt>
      <trkpt lat="49.13099" lon="4.07176">
        <ele>271</ele>
        <time>2021-05-04T07:04:57Z</time>
      </trkpt>
      <trkpt lat="49.13093" lon="4.07204">
        <ele>270</ele>
        <time>2021-05-04T07:05:00Z</time>
      </trkpt>
      <trkpt lat="49.13093" lon="4.07219">
        <ele>270</ele>
        <time>2021-05-04T07:05:02Z</time>
      </trkpt>
      <trkpt lat="49.13087" lon="4.07251">
        <ele>270</ele>
        <time>2021-05-04T07:05:06Z</time>
      </trkpt>
      <trkpt lat="49.1308" lon="4.07316">
        <ele>270</ele>
        <time>2021-05-04T07:05:13Z</time>
      </trkpt>
      <trkpt lat="49.1306" lon="4.07387">
        <ele>268</ele>
        <time>2021-05-04T07:05:22Z</time>
      </trkpt>
      <trkpt lat="49.13045" lon="4.07475">
        <ele>265</ele>
        <time>2021-05-04T07:05:33Z</time>
      </trkpt>
      <trkpt lat="49.13016" lon="4.07592">
        <ele>262</ele>
        <time>2021-05-04T07:05:47Z</time>
      </trkpt>
      <trkpt lat="49.12991" lon="4.07681">
        <ele>254</ele>
        <time>2021-05-04T07:05:59Z</time>
      </trkpt>
      <trkpt lat="49.12948" lon="4.07809">
        <ele>244</ele>
        <time>2021-05-04T07:06:16Z</time>
      </trkpt>
      <trkpt lat="49.12889" lon="4.07929">
        <ele>234</ele>
        <time>2021-05-04T07:06:33Z</time>
      </trkpt>
      <trkpt lat="49.12865" lon="4.07999">
        <ele>228</ele>
        <time>2021-05-04T07:06:42Z</time>
      </trkpt>
      <trkpt lat="49.12858" lon="4.08027">
        <ele>226</ele>
        <time>2021-05-04T07:06:46Z</time>
      </trkpt>
      <trkpt lat="49.12853" lon="4.08033">
        <ele>226</ele>
        <time>2021-05-04T07:06:47Z</time>
      </trkpt>
      <trkpt lat="49.12806" lon="4.08054">
        <ele>224</ele>
        <time>2021-05-04T07:06:56Z</time>
      </trkpt>
      <trkpt lat="49.12765" lon="4.08077">
        <ele>220</ele>
        <time>2021-05-04T07:07:03Z</time>
      </trkpt>
      <trkpt lat="49.12753" lon="4.0808">
        <ele>219</ele>
        <time>2021-05-04T07:07:05Z</time>
      </trkpt>
      <trkpt lat="49.12696" lon="4.08058">
        <ele>223</ele>
        <time>2021-05-04T07:07:16Z</time>
      </trkpt>
      <trkpt lat="49.12664" lon="4.0806">
        <ele>225</ele>
        <time>2021-05-04T07:07:22Z</time>
      </trkpt>
      <trkpt lat="49.12626" lon="4.08095">
        <ele>224</ele>
        <time>2021-05-04T07:07:30Z</time>
      </trkpt>
      <trkpt lat="49.12595" lon="4.0813">
        <ele>224</ele>
        <time>2021-05-04T07:07:36Z</time>
      </trkpt>
      <trkpt lat="49.12555" lon="4.08152">
        <ele>225</ele>
        <time>2021-05-04T07:07:44Z</time>
      </trkpt>
      <trkpt lat="49.1255" lon="4.08148">
        <ele>225</ele>
        <time>2021-05-04T07:07:45Z</time>
      </trkpt>
      <trkpt lat="49.12528" lon="4.08084">
        <ele>230</ele>
        <time>2021-05-04T07:07:53Z</time>
      </trkpt>
      <trkpt lat="49.12513" lon="4.08051">
        <ele>231</ele>
        <time>2021-05-04T07:07:58Z</time>
      </trkpt>
      <trkpt lat="49.12468" lon="4.0807">
        <ele>232</ele>
        <time>2021-05-04T07:08:06Z</time>
      </trkpt>
      <trkpt lat="49.1243" lon="4.0803">
        <ele>234</ele>
        <time>2021-05-04T07:08:15Z</time>
      </trkpt>
      <trkpt lat="49.12384" lon="4.07907">
        <ele>242</ele>
        <time>2021-05-04T07:08:31Z</time>
      </trkpt>
      <trkpt lat="49.12358" lon="4.07847">
        <ele>243</ele>
        <time>2021-05-04T07:08:39Z</time>
      </trkpt>
      <trkpt lat="49.12362" lon="4.07777">
        <ele>248</ele>
        <time>2021-05-04T07:08:48Z</time>
      </trkpt>
      <trkpt lat="49.12389" lon="4.07718">
        <ele>254</ele>
        <time>2021-05-04T07:08:56Z</time>
      </trkpt>
      <trkpt lat="49.12413" lon="4.07657">
        <ele>259</ele>
        <time>2021-05-04T07:09:04Z</time>
      </trkpt>
      <trkpt lat="49.12435" lon="4.07592">
        <ele>261</ele>
        <time>2021-05-04T07:09:13Z</time>
      </trkpt>
      <trkpt lat="49.12459" lon="4.07534">
        <ele>261</ele>
        <time>2021-05-04T07:09:21Z</time>
      </trkpt>
      <trkpt lat="49.12513" lon="4.07425">
        <ele>263</ele>
        <time>2021-05-04T07:09:37Z</time>
      </trkpt>
      <trkpt lat="49.12516" lon="4.07414">
        <ele>263</ele>
        <time>2021-05-04T07:09:38Z</time>
      </trkpt>
      <trkpt lat="49.1252" lon="4.07195">
        <ele>267</ele>
        <time>2021-05-04T07:10:04Z</time>
      </trkpt>
      <trkpt lat="49.12516" lon="4.07115">
        <ele>268</ele>
        <time>2021-05-04T07:10:13Z</time>
      </trkpt>
      <trkpt lat="49.12515" lon="4.06978">
        <ele>270</ele>
        <time>2021-05-04T07:10:29Z</time>
      </trkpt>
      <trkpt lat="49.12525" lon="4.06901">
        <ele>271</ele>
        <time>2021-05-04T07:10:38Z</time>
      </trkpt>
      <trkpt lat="49.12556" lon="4.06795">
        <ele>274</ele>
        <time>2021-05-04T07:10:52Z</time>
      </trkpt>
      <trkpt lat="49.12572" lon="4.06707">
        <ele>276</ele>
        <time>2021-05-04T07:11:02Z</time>
      </trkpt>
      <trkpt lat="49.12572" lon="4.06632">
        <ele>276</ele>
        <time>2021-05-04T07:11:11Z</time>
      </trkpt>
      <trkpt lat="49.12565" lon="4.06489">
        <ele>276</ele>
        <time>2021-05-04T07:11:28Z</time>
      </trkpt>
      <trkpt lat="49.12566" lon="4.06454">
        <ele>276</ele>
        <time>2021-05-04T07:11:32Z</time>
      </trkpt>
      <trkpt lat="49.12562" lon="4.06446">
        <ele>276</ele>
        <time>2021-05-04T07:11:33Z</time>
      </trkpt>
      <trkpt lat="49.12566" lon="4.06416">
        <ele>276</ele>
        <time>2021-05-04T07:11:36Z</time>
      </trkpt>
      <trkpt lat="49.12564" lon="4.06385">
        <ele>275</ele>
        <time>2021-05-04T07:11:40Z</time>
      </trkpt>
      <trkpt lat="49.12561" lon="4.06379">
        <ele>275</ele>
        <time>2021-05-04T07:11:41Z</time>
      </trkpt>
      <trkpt lat="49.12571" lon="4.06313">
        <ele>274</ele>
        <time>2021-05-04T07:11:49Z</time>
      </trkpt>
      <trkpt lat="49.12576" lon="4.06297">
        <ele>274</ele>
        <time>2021-05-04T07:11:51Z</time>
      </trkpt>
      <trkpt lat="49.12583" lon="4.06236">
        <ele>273</ele>
        <time>2021-05-04T07:11:58Z</time>
      </trkpt>
      <trkpt lat="49.12586" lon="4.06163">
        <ele>273</ele>
        <time>2021-05-04T07:12:07Z</time>
      </trkpt>
      <trkpt lat="49.12594" lon="4.06083">
        <ele>271</ele>
        <time>2021-05-04T07:12:16Z</time>
      </trkpt>
      <trkpt lat="49.126" lon="4.0607">
        <ele>271</ele>
        <time>2021-05-04T07:12:18Z</time>
      </trkpt>
      <trkpt lat="49.12602" lon="4.06001">
        <ele>272</ele>
        <time>2021-05-04T07:12:26Z</time>
      </trkpt>
      <trkpt lat="49.12606" lon="4.05987">
        <ele>273</ele>
        <time>2021-05-04T07:12:28Z</time>
      </trkpt>
      <trkpt lat="49.12606" lon="4.0597">
        <ele>273</ele>
        <time>2021-05-04T07:12:30Z</time>
      </trkpt>
      <trkpt lat="49.12613" lon="4.05941">
        <ele>274</ele>
        <time>2021-05-04T07:12:33Z</time>
      </trkpt>
      <trkpt lat="49.12612" lon="4.05924">
        <ele>274</ele>
        <time>2021-05-04T07:12:35Z</time>
      </trkpt>
      <trkpt lat="49.12622" lon="4.05886">
        <ele>273</ele>
        <time>2021-05-04T07:12:40Z</time>
      </trkpt>
      <trkpt lat="49.12627" lon="4.05853">
        <ele>273</ele>
        <time>2021-05-04T07:12:44Z</time>
      </trkpt>
      <trkpt lat="49.12624" lon="4.05836">
        <ele>272</ele>
        <time>2021-05-04T07:12:46Z</time>
      </trkpt>
      <trkpt lat="49.12624" lon="4.05817">
        <ele>272</ele>
        <time>2021-05-04T07:12:48Z</time>
      </trkpt>
      <trkpt lat="49.12626" lon="4.05789">
        <ele>271</ele>
        <time>2021-05-04T07:12:52Z</time>
      </trkpt>
      <trkpt lat="49.12631" lon="4.05774">
        <ele>271</ele>
        <time>2021-05-04T07:12:54Z</time>
      </trkpt>
      <trkpt lat="49.12631" lon="4.05743">
        <ele>270</ele>
        <time>2021-05-04T07:12:57Z</time>
      </trkpt>
      <trkpt lat="49.12618" lon="4.05703">
        <ele>270</ele>
        <time>2021-05-04T07:13:02Z</time>
      </trkpt>
      <trkpt lat="49.12587" lon="4.0564">
        <ele>268</ele>
        <time>2021-05-04T07:13:12Z</time>
      </trkpt>
      <trkpt lat="49.12552" lon="4.05582">
        <ele>267</ele>
        <time>2021-05-04T07:13:21Z</time>
      </trkpt>
      <trkpt lat="49.12501" lon="4.05507">
        <ele>263</ele>
        <time>2021-05-04T07:13:33Z</time>
      </trkpt>
      <trkpt lat="49.12498" lon="4.05486">
        <ele>263</ele>
        <time>2021-05-04T07:13:36Z</time>
      </trkpt>
      <trkpt lat="49.12484" lon="4.05457">
        <ele>260</ele>
        <time>2021-05-04T07:13:40Z</time>
      </trkpt>
      <trkpt lat="49.12474" lon="4.05371">
        <ele>257</ele>
        <time>2021-05-04T07:13:50Z</time>
      </trkpt>
      <trkpt lat="49.12477" lon="4.05347">
        <ele>257</ele>
        <time>2021-05-04T07:13:53Z</time>
      </trkpt>
      <trkpt lat="49.12475" lon="4.05321">
        <ele>256</ele>
        <time>2021-05-04T07:13:56Z</time>
      </trkpt>
      <trkpt lat="49.12481" lon="4.0525">
        <ele>256</ele>
        <time>2021-05-04T07:14:04Z</time>
      </trkpt>
      <trkpt lat="49.12471" lon="4.0519">
        <ele>257</ele>
        <time>2021-05-04T07:14:12Z</time>
      </trkpt>
      <trkpt lat="49.12448" lon="4.0512">
        <ele>256</ele>
        <time>2021-05-04T07:14:21Z</time>
      </trkpt>
      <trkpt lat="49.12401" lon="4.04997">
        <ele>251</ele>
        <time>2021-05-04T07:14:37Z</time>
      </trkpt>
      <trkpt lat="49.12377" lon="4.04919">
        <ele>248</ele>
        <time>2021-05-04T07:14:47Z</time>
      </trkpt>
      <trkpt lat="49.12358" lon="4.04782">
        <ele>244</ele>
        <time>2021-05-04T07:15:04Z</time>
      </trkpt>
      <trkpt lat="49.1234" lon="4.04698">
        <ele>239</ele>
        <time>2021-05-04T07:15:14Z</time>
      </trkpt>
      <trkpt lat="49.12331" lon="4.0464">
        <ele>238</ele>
        <time>2021-05-04T07:15:21Z</time>
      </trkpt>
      <trkpt lat="49.12326" lon="4.04579">
        <ele>238</ele>
        <time>2021-05-04T07:15:28Z</time>
      </trkpt>
      <trkpt lat="49.12321" lon="4.04551">
        <ele>236</ele>
        <time>2021-05-04T07:15:31Z</time>
      </trkpt>
      <trkpt lat="49.12317" lon="4.04537">
        <ele>236</ele>
        <time>2021-05-04T07:15:33Z</time>
      </trkpt>
      <trkpt lat="49.12283" lon="4.04482">
        <ele>232</ele>
        <time>2021-05-04T07:15:42Z</time>
      </trkpt>
      <trkpt lat="49.12209" lon="4.04378">
        <ele>224</ele>
        <time>2021-05-04T07:16:00Z</time>
      </trkpt>
      <trkpt lat="49.12198" lon="4.04352">
        <ele>222</ele>
        <time>2021-05-04T07:16:03Z</time>
      </trkpt>
      <trkpt lat="49.12181" lon="4.04292">
        <ele>218</ele>
        <time>2021-05-04T07:16:11Z</time>
      </trkpt>
      <trkpt lat="49.12168" lon="4.04176">
        <ele>215</ele>
        <time>2021-05-04T07:16:25Z</time>
      </trkpt>
      <trkpt lat="49.12168" lon="4.04161">
        <ele>215</ele>
        <time>2021-05-04T07:16:27Z</time>
      </trkpt>
      <trkpt lat="49.12187" lon="4.04006">
        <ele>208</ele>
        <time>2021-05-04T07:16:45Z</time>
      </trkpt>
      <trkpt lat="49.12184" lon="4.03993">
        <ele>207</ele>
        <time>2021-05-04T07:16:47Z</time>
      </trkpt>
      <trkpt lat="49.12199" lon="4.03934">
        <ele>203</ele>
        <time>2021-05-04T07:16:54Z</time>
      </trkpt>
      <trkpt lat="49.12203" lon="4.03892">
        <ele>200</ele>
        <time>2021-05-04T07:16:59Z</time>
      </trkpt>
      <trkpt lat="49.12208" lon="4.03773">
        <ele>189</ele>
        <time>2021-05-04T07:17:13Z</time>
      </trkpt>
      <trkpt lat="49.12217" lon="4.03755">
        <ele>187</ele>
        <time>2021-05-04T07:17:15Z</time>
      </trkpt>
      <trkpt lat="49.12231" lon="4.03745">
        <ele>186</ele>
        <time>2021-05-04T07:17:18Z</time>
      </trkpt>
      <trkpt lat="49.12248" lon="4.03747">
        <ele>186</ele>
        <time>2021-05-04T07:17:21Z</time>
      </trkpt>
      <trkpt lat="49.12278" lon="4.03777">
        <ele>187</ele>
        <time>2021-05-04T07:17:28Z</time>
      </trkpt>
      <trkpt lat="49.12308" lon="4.03812">
        <ele>188</ele>
        <time>2021-05-04T07:17:34Z</time>
      </trkpt>
      <trkpt lat="49.12321" lon="4.03815">
        <ele>187</ele>
        <time>2021-05-04T07:17:37Z</time>
      </trkpt>
      <trkpt lat="49.12335" lon="4.03808">
        <ele>186</ele>
        <time>2021-05-04T07:17:39Z</time>
      </trkpt>
      <trkpt lat="49.12371" lon="4.03754">
        <ele>183</ele>
        <time>2021-05-04T07:17:48Z</time>
      </trkpt>
      <trkpt lat="49.1238" lon="4.03714">
        <ele>181</ele>
        <time>2021-05-04T07:17:53Z</time>
      </trkpt>
      <trkpt lat="49.12384" lon="4.03638">
        <ele>177</ele>
        <time>2021-05-04T07:18:02Z</time>
      </trkpt>
      <trkpt lat="49.12384" lon="4.03579">
        <ele>177</ele>
        <time>2021-05-04T07:18:09Z</time>
      </trkpt>
      <trkpt lat="49.12376" lon="4.03557">
        <ele>177</ele>
        <time>2021-05-04T07:18:12Z</time>
      </trkpt>
      <trkpt lat="49.12341" lon="4.03509">
        <ele>175</ele>
        <time>2021-05-04T07:18:20Z</time>
      </trkpt>
      <trkpt lat="49.12317" lon="4.03471">
        <ele>175</ele>
        <time>2021-05-04T07:18:26Z</time>
      </trkpt>
      <trkpt lat="49.12263" lon="4.03354">
        <ele>170</ele>
        <time>2021-05-04T07:18:43Z</time>
      </trkpt>
      <trkpt lat="49.12232" lon="4.03276">
        <ele>167</ele>
        <time>2021-05-04T07:18:54Z</time>
      </trkpt>
      <trkpt lat="49.12177" lon="4.03162">
        <ele>166</ele>
        <time>2021-05-04T07:19:10Z</time>
      </trkpt>
      <trkpt lat="49.12143" lon="4.03113">
        <ele>168</ele>
        <time>2021-05-04T07:19:18Z</time>
      </trkpt>
      <trkpt lat="49.12116" lon="4.03081">
        <ele>170</ele>
        <time>2021-05-04T07:19:24Z</time>
      </trkpt>
      <trkpt lat="49.12022" lon="4.03085">
        <ele>173</ele>
        <time>2021-05-04T07:19:41Z</time>
      </trkpt>
      <trkpt lat="49.11891" lon="4.03106">
        <ele>181</ele>
        <time>2021-05-04T07:20:05Z</time>
      </trkpt>
      <trkpt lat="49.1184" lon="4.03109">
        <ele>187</ele>
        <time>2021-05-04T07:20:14Z</time>
      </trkpt>
      <trkpt lat="49.11797" lon="4.031">
        <ele>189</ele>
        <time>2021-05-04T07:20:21Z</time>
      </trkpt>
      <trkpt lat="49.11751" lon="4.03084">
        <ele>191</ele>
        <time>2021-05-04T07:20:30Z</time>
      </trkpt>
      <trkpt lat="49.11705" lon="4.03072">
        <ele>194</ele>
        <time>2021-05-04T07:20:38Z</time>
      </trkpt>
      <trkpt lat="49.11655" lon="4.03067">
        <ele>196</ele>
        <time>2021-05-04T07:20:47Z</time>
      </trkpt>
      <trkpt lat="49.11611" lon="4.0308">
        <ele>197</ele>
        <time>2021-05-04T07:20:55Z</time>
      </trkpt>
      <trkpt lat="49.1157" lon="4.03107">
        <ele>198</ele>
        <time>2021-05-04T07:21:03Z</time>
      </trkpt>
      <trkpt lat="49.11529" lon="4.03146">
        <ele>202</ele>
        <time>2021-05-04T07:21:12Z</time>
      </trkpt>
      <trkpt lat="49.11502" lon="4.03201">
        <ele>204</ele>
        <time>2021-05-04T07:21:20Z</time>
      </trkpt>
      <trkpt lat="49.11465" lon="4.03232">
        <ele>208</ele>
        <time>2021-05-04T07:21:27Z</time>
      </trkpt>
      <trkpt lat="49.11424" lon="4.03213">
        <ele>212</ele>
        <time>2021-05-04T07:21:35Z</time>
      </trkpt>
      <trkpt lat="49.11379" lon="4.03181">
        <ele>214</ele>
        <time>2021-05-04T07:21:44Z</time>
      </trkpt>
      <trkpt lat="49.11353" lon="4.03074">
        <ele>220</ele>
        <time>2021-05-04T07:21:57Z</time>
      </trkpt>
      <trkpt lat="49.11335" lon="4.03011">
        <ele>223</ele>
        <time>2021-05-04T07:22:05Z</time>
      </trkpt>
      <trkpt lat="49.11303" lon="4.02984">
        <ele>226</ele>
        <time>2021-05-04T07:22:11Z</time>
      </trkpt>
      <trkpt lat="49.11296" lon="4.0298">
        <ele>227</ele>
        <time>2021-05-04T07:22:13Z</time>
      </trkpt>
      <trkpt lat="49.11205" lon="4.02961">
        <ele>234</ele>
        <time>2021-05-04T07:22:29Z</time>
      </trkpt>
      <trkpt lat="49.11113" lon="4.02936">
        <ele>244</ele>
        <time>2021-05-04T07:22:46Z</time>
      </trkpt>
      <trkpt lat="49.11073" lon="4.02932">
        <ele>247</ele>
        <time>2021-05-04T07:22:53Z</time>
      </trkpt>
      <trkpt lat="49.11023" lon="4.02919">
        <ele>250</ele>
        <time>2021-05-04T07:23:02Z</time>
      </trkpt>
      <trkpt lat="49.10979" lon="4.02896">
        <ele>253</ele>
        <time>2021-05-04T07:23:10Z</time>
      </trkpt>
      <trkpt lat="49.10941" lon="4.02864">
        <ele>255</ele>
        <time>2021-05-04T07:23:18Z</time>
      </trkpt>
      <trkpt lat="49.10929" lon="4.028">
        <ele>259</ele>
        <time>2021-05-04T07:23:26Z</time>
      </trkpt>
      <trkpt lat="49.10927" lon="4.02724">
        <ele>264</ele>
        <time>2021-05-04T07:23:34Z</time>
      </trkpt>
      <trkpt lat="49.10918" lon="4.02656">
        <ele>267</ele>
        <time>2021-05-04T07:23:42Z</time>
      </trkpt>
      <trkpt lat="49.10915" lon="4.02612">
        <ele>268</ele>
        <time>2021-05-04T07:23:48Z</time>
      </trkpt>
      <trkpt lat="49.10906" lon="4.02591">
        <ele>269</ele>
        <time>2021-05-04T07:23:51Z</time>
      </trkpt>
      <trkpt lat="49.10907" lon="4.02527">
        <ele>272</ele>
        <time>2021-05-04T07:23:58Z</time>
      </trkpt>
      <trkpt lat="49.10895" lon="4.02455">
        <ele>275</ele>
        <time>2021-05-04T07:24:07Z</time>
      </trkpt>
      <trkpt lat="49.10893" lon="4.02322">
        <ele>277</ele>
        <time>2021-05-04T07:24:22Z</time>
      </trkpt>
      <trkpt lat="49.10888" lon="4.02247">
        <ele>275</ele>
        <time>2021-05-04T07:24:31Z</time>
      </trkpt>
      <trkpt lat="49.10868" lon="4.02102">
        <ele>270</ele>
        <time>2021-05-04T07:24:48Z</time>
      </trkpt>
      <trkpt lat="49.10862" lon="4.02043">
        <ele>267</ele>
        <time>2021-05-04T07:24:55Z</time>
      </trkpt>
      <trkpt lat="49.10853" lon="4.0194">
        <ele>266</ele>
        <time>2021-05-04T07:25:07Z</time>
      </trkpt>
      <trkpt lat="49.1085" lon="4.01878">
        <ele>267</ele>
        <time>2021-05-04T07:25:15Z</time>
      </trkpt>
      <trkpt lat="49.10841" lon="4.01802">
        <ele>269</ele>
        <time>2021-05-04T07:25:24Z</time>
      </trkpt>
      <trkpt lat="49.10842" lon="4.01777">
        <ele>270</ele>
        <time>2021-05-04T07:25:26Z</time>
      </trkpt>
      <trkpt lat="49.10801" lon="4.01641">
        <ele>265</ele>
        <time>2021-05-04T07:25:44Z</time>
      </trkpt>
      <trkpt lat="49.10776" lon="4.01573">
        <ele>264</ele>
        <time>2021-05-04T07:25:53Z</time>
      </trkpt>
      <trkpt lat="49.10701" lon="4.01339">
        <ele>269</ele>
        <time>2021-05-04T07:26:23Z</time>
      </trkpt>
      <trkpt lat="49.10695" lon="4.01328">
        <ele>269</ele>
        <time>2021-05-04T07:26:25Z</time>
      </trkpt>
      <trkpt lat="49.10694" lon="4.01319">
        <ele>270</ele>
        <time>2021-05-04T07:26:26Z</time>
      </trkpt>
      <trkpt lat="49.1068" lon="4.013">
        <ele>271</ele>
        <time>2021-05-04T07:26:29Z</time>
      </trkpt>
      <trkpt lat="49.1068" lon="4.01292">
        <ele>271</ele>
        <time>2021-05-04T07:26:30Z</time>
      </trkpt>
      <trkpt lat="49.10639" lon="4.01162">
        <ele>274</ele>
        <time>2021-05-04T07:26:47Z</time>
      </trkpt>
      <trkpt lat="49.10622" lon="4.01132">
        <ele>274</ele>
        <time>2021-05-04T07:26:52Z</time>
      </trkpt>
      <trkpt lat="49.10605" lon="4.01086">
        <ele>273</ele>
        <time>2021-05-04T07:26:58Z</time>
      </trkpt>
      <trkpt lat="49.10603" lon="4.01016">
        <ele>273</ele>
        <time>2021-05-04T07:27:06Z</time>
      </trkpt>
      <trkpt lat="49.10609" lon="4.00958">
        <ele>274</ele>
        <time>2021-05-04T07:27:13Z</time>
      </trkpt>
      <trkpt lat="49.10602" lon="4.00912">
        <ele>275</ele>
        <time>2021-05-04T07:27:18Z</time>
      </trkpt>
      <trkpt lat="49.10604" lon="4.00897">
        <ele>275</ele>
        <time>2021-05-04T07:27:20Z</time>
      </trkpt>
      <trkpt lat="49.10593" lon="4.00828">
        <ele>276</ele>
        <time>2021-05-04T07:27:28Z</time>
      </trkpt>
      <trkpt lat="49.1056" lon="4.00714">
        <ele>276</ele>
        <time>2021-05-04T07:27:43Z</time>
      </trkpt>
      <trkpt lat="49.10552" lon="4.00637">
        <ele>275</ele>
        <time>2021-05-04T07:27:52Z</time>
      </trkpt>
      <trkpt lat="49.10553" lon="4.00571">
        <ele>274</ele>
        <time>2021-05-04T07:28:00Z</time>
      </trkpt>
      <trkpt lat="49.1055" lon="4.00541">
        <ele>274</ele>
        <time>2021-05-04T07:28:03Z</time>
      </trkpt>
      <trkpt lat="49.10513" lon="4.00364">
        <ele>274</ele>
        <time>2021-05-04T07:28:25Z</time>
      </trkpt>
      <trkpt lat="49.10509" lon="4.00279">
        <ele>273</ele>
        <time>2021-05-04T07:28:35Z</time>
      </trkpt>
      <trkpt lat="49.10513" lon="4.00199">
        <ele>273</ele>
        <time>2021-05-04T07:28:44Z</time>
      </trkpt>
      <trkpt lat="49.10523" lon="4.00133">
        <ele>274</ele>
        <time>2021-05-04T07:28:52Z</time>
      </trkpt>
      <trkpt lat="49.1053" lon="4.0006">
        <ele>275</ele>
        <time>2021-05-04T07:29:01Z</time>
      </trkpt>
      <trkpt lat="49.10531" lon="4.00029">
        <ele>275</ele>
        <time>2021-05-04T07:29:04Z</time>
      </trkpt>
      <trkpt lat="49.10529" lon="4.00013">
        <ele>276</ele>
        <time>2021-05-04T07:29:06Z</time>
      </trkpt>
      <trkpt lat="49.10542" lon="3.999">
        <ele>275</ele>
        <time>2021-05-04T07:29:20Z</time>
      </trkpt>
      <trkpt lat="49.10548" lon="3.99866">
        <ele>275</ele>
        <time>2021-05-04T07:29:24Z</time>
      </trkpt>
      <trkpt lat="49.10542" lon="3.99845">
        <ele>276</ele>
        <time>2021-05-04T07:29:26Z</time>
      </trkpt>
      <trkpt lat="49.10545" lon="3.9983">
        <ele>276</ele>
        <time>2021-05-04T07:29:28Z</time>
      </trkpt>
      <trkpt lat="49.10541" lon="3.99757">
        <ele>277</ele>
        <time>2021-05-04T07:29:37Z</time>
      </trkpt>
      <trkpt lat="49.10546" lon="3.99684">
        <ele>275</ele>
        <time>2021-05-04T07:29:45Z</time>
      </trkpt>
      <trkpt lat="49.1055" lon="3.9966">
        <ele>274</ele>
        <time>2021-05-04T07:29:48Z</time>
      </trkpt>
      <trkpt lat="49.10549" lon="3.99618">
        <ele>275</ele>
        <time>2021-05-04T07:29:53Z</time>
      </trkpt>
      <trkpt lat="49.10546" lon="3.99608">
        <ele>275</ele>
        <time>2021-05-04T07:29:54Z</time>
      </trkpt>
      <trkpt lat="49.10552" lon="3.99569">
        <ele>275</ele>
        <time>2021-05-04T07:29:59Z</time>
      </trkpt>
      <trkpt lat="49.10551" lon="3.99535">
        <ele>276</ele>
        <time>2021-05-04T07:30:03Z</time>
      </trkpt>
      <trkpt lat="49.10555" lon="3.99515">
        <ele>276</ele>
        <time>2021-05-04T07:30:05Z</time>
      </trkpt>
      <trkpt lat="49.10556" lon="3.9947">
        <ele>278</ele>
        <time>2021-05-04T07:30:11Z</time>
      </trkpt>
      <trkpt lat="49.10554" lon="3.99439">
        <ele>279</ele>
        <time>2021-05-04T07:30:14Z</time>
      </trkpt>
      <trkpt lat="49.10564" lon="3.99378">
        <ele>280</ele>
        <time>2021-05-04T07:30:22Z</time>
      </trkpt>
      <trkpt lat="49.10584" lon="3.99305">
        <ele>279</ele>
        <time>2021-05-04T07:30:31Z</time>
      </trkpt>
      <trkpt lat="49.10596" lon="3.99247">
        <ele>278</ele>
        <time>2021-05-04T07:30:38Z</time>
      </trkpt>
      <trkpt lat="49.10596" lon="3.99238">
        <ele>278</ele>
        <time>2021-05-04T07:30:39Z</time>
      </trkpt>
      <trkpt lat="49.10609" lon="3.99204">
        <ele>277</ele>
        <time>2021-05-04T07:30:43Z</time>
      </trkpt>
      <trkpt lat="49.10615" lon="3.99146">
        <ele>277</ele>
        <time>2021-05-04T07:30:50Z</time>
      </trkpt>
      <trkpt lat="49.10614" lon="3.9912">
        <ele>277</ele>
        <time>2021-05-04T07:30:53Z</time>
      </trkpt>
      <trkpt lat="49.10618" lon="3.99099">
        <ele>277</ele>
        <time>2021-05-04T07:30:56Z</time>
      </trkpt>
      <trkpt lat="49.10616" lon="3.9909">
        <ele>277</ele>
        <time>2021-05-04T07:30:57Z</time>
      </trkpt>
      <trkpt lat="49.1062" lon="3.99055">
        <ele>276</ele>
        <time>2021-05-04T07:31:01Z</time>
      </trkpt>
      <trkpt lat="49.10616" lon="3.99037">
        <ele>276</ele>
        <time>2021-05-04T07:31:03Z</time>
      </trkpt>
      <trkpt lat="49.10616" lon="3.99003">
        <ele>275</ele>
        <time>2021-05-04T07:31:07Z</time>
      </trkpt>
      <trkpt lat="49.10612" lon="3.98992">
        <ele>275</ele>
        <time>2021-05-04T07:31:09Z</time>
      </trkpt>
      <trkpt lat="49.10613" lon="3.98975">
        <ele>274</ele>
        <time>2021-05-04T07:31:11Z</time>
      </trkpt>
      <trkpt lat="49.10616" lon="3.98968">
        <ele>274</ele>
        <time>2021-05-04T07:31:12Z</time>
      </trkpt>
      <trkpt lat="49.10615" lon="3.9891">
        <ele>272</ele>
        <time>2021-05-04T07:31:19Z</time>
      </trkpt>
      <trkpt lat="49.10619" lon="3.98896">
        <ele>272</ele>
        <time>2021-05-04T07:31:20Z</time>
      </trkpt>
      <trkpt lat="49.10619" lon="3.98882">
        <ele>272</ele>
        <time>2021-05-04T07:31:22Z</time>
      </trkpt>
      <trkpt lat="49.1061" lon="3.98795">
        <ele>272</ele>
        <time>2021-05-04T07:31:32Z</time>
      </trkpt>
      <trkpt lat="49.10613" lon="3.98782">
        <ele>273</ele>
        <time>2021-05-04T07:31:34Z</time>
      </trkpt>
      <trkpt lat="49.10611" lon="3.98773">
        <ele>273</ele>
        <time>2021-05-04T07:31:35Z</time>
      </trkpt>
      <trkpt lat="49.10627" lon="3.98702">
        <ele>272</ele>
        <time>2021-05-04T07:31:44Z</time>
      </trkpt>
      <trkpt lat="49.10649" lon="3.98663">
        <ele>271</ele>
        <time>2021-05-04T07:31:50Z</time>
      </trkpt>
      <trkpt lat="49.10654" lon="3.98636">
        <ele>271</ele>
        <time>2021-05-04T07:31:53Z</time>
      </trkpt>
      <trkpt lat="49.10663" lon="3.98615">
        <ele>271</ele>
        <time>2021-05-04T07:31:56Z</time>
      </trkpt>
      <trkpt lat="49.10676" lon="3.98595">
        <ele>271</ele>
        <time>2021-05-04T07:31:59Z</time>
      </trkpt>
      <trkpt lat="49.10686" lon="3.98571">
        <ele>271</ele>
        <time>2021-05-04T07:32:02Z</time>
      </trkpt>
      <trkpt lat="49.10705" lon="3.98544">
        <ele>271</ele>
        <time>2021-05-04T07:32:07Z</time>
      </trkpt>
      <trkpt lat="49.10723" lon="3.98492">
        <ele>273</ele>
        <time>2021-05-04T07:32:14Z</time>
      </trkpt>
      <trkpt lat="49.10733" lon="3.9848">
        <ele>274</ele>
        <time>2021-05-04T07:32:16Z</time>
      </trkpt>
      <trkpt lat="49.10742" lon="3.98455">
        <ele>275</ele>
        <time>2021-05-04T07:32:19Z</time>
      </trkpt>
      <trkpt lat="49.1074" lon="3.98445">
        <ele>275</ele>
        <time>2021-05-04T07:32:21Z</time>
      </trkpt>
      <trkpt lat="49.10744" lon="3.98372">
        <ele>275</ele>
        <time>2021-05-04T07:32:29Z</time>
      </trkpt>
      <trkpt lat="49.10743" lon="3.98336">
        <ele>274</ele>
        <time>2021-05-04T07:32:33Z</time>
      </trkpt>
      <trkpt lat="49.10732" lon="3.98288">
        <ele>274</ele>
        <time>2021-05-04T07:32:39Z</time>
      </trkpt>
      <trkpt lat="49.1072" lon="3.98251">
        <ele>274</ele>
        <time>2021-05-04T07:32:44Z</time>
      </trkpt>
      <trkpt lat="49.10651" lon="3.98223">
        <ele>278</ele>
        <time>2021-05-04T07:32:57Z</time>
      </trkpt>
      <trkpt lat="49.10513" lon="3.98179">
        <ele>280</ele>
        <time>2021-05-04T07:33:22Z</time>
      </trkpt>
      <trkpt lat="49.10386" lon="3.9813">
        <ele>276</ele>
        <time>2021-05-04T07:33:45Z</time>
      </trkpt>
      <trkpt lat="49.10327" lon="3.9811">
        <ele>275</ele>
        <time>2021-05-04T07:33:56Z</time>
      </trkpt>
      <trkpt lat="49.10139" lon="3.98035">
        <ele>278</ele>
        <time>2021-05-04T07:34:31Z</time>
      </trkpt>
      <trkpt lat="49.09995" lon="3.9798">
        <ele>278</ele>
        <time>2021-05-04T07:34:57Z</time>
      </trkpt>
      <trkpt lat="49.09901" lon="3.97947">
        <ele>277</ele>
        <time>2021-05-04T07:35:14Z</time>
      </trkpt>
      <trkpt lat="49.09857" lon="3.97927">
        <ele>276</ele>
        <time>2021-05-04T07:35:22Z</time>
      </trkpt>
      <trkpt lat="49.0976" lon="3.97894">
        <ele>276</ele>
        <time>2021-05-04T07:35:40Z</time>
      </trkpt>
      <trkpt lat="49.09717" lon="3.97875">
        <ele>276</ele>
        <time>2021-05-04T07:35:48Z</time>
      </trkpt>
      <trkpt lat="49.09672" lon="3.97851">
        <ele>274</ele>
        <time>2021-05-04T07:35:56Z</time>
      </trkpt>
      <trkpt lat="49.09644" lon="3.97841">
        <ele>274</ele>
        <time>2021-05-04T07:36:02Z</time>
      </trkpt>
      <trkpt lat="49.09614" lon="3.97841">
        <ele>274</ele>
        <time>2021-05-04T07:36:07Z</time>
      </trkpt>
      <trkpt lat="49.09387" lon="3.97754">
        <ele>273</ele>
        <time>2021-05-04T07:36:49Z</time>
      </trkpt>
      <trkpt lat="49.09309" lon="3.97727">
        <ele>272</ele>
        <time>2021-05-04T07:37:03Z</time>
      </trkpt>
      <trkpt lat="49.09257" lon="3.97703">
        <ele>270</ele>
        <time>2021-05-04T07:37:12Z</time>
      </trkpt>
      <trkpt lat="49.09213" lon="3.97686">
        <ele>266</ele>
        <time>2021-05-04T07:37:21Z</time>
      </trkpt>
      <trkpt lat="49.09166" lon="3.97673">
        <ele>262</ele>
        <time>2021-05-04T07:37:29Z</time>
      </trkpt>
      <trkpt lat="49.0915" lon="3.97679">
        <ele>260</ele>
        <time>2021-05-04T07:37:32Z</time>
      </trkpt>
      <trkpt lat="49.09107" lon="3.97722">
        <ele>255</ele>
        <time>2021-05-04T07:37:41Z</time>
      </trkpt>
      <trkpt lat="49.09065" lon="3.9777">
        <ele>251</ele>
        <time>2021-05-04T07:37:50Z</time>
      </trkpt>
      <trkpt lat="49.09048" lon="3.97804">
        <ele>248</ele>
        <time>2021-05-04T07:37:55Z</time>
      </trkpt>
      <trkpt lat="49.09033" lon="3.97867">
        <ele>248</ele>
        <time>2021-05-04T07:38:03Z</time>
      </trkpt>
      <trkpt lat="49.09009" lon="3.97942">
        <ele>250</ele>
        <time>2021-05-04T07:38:13Z</time>
      </trkpt>
      <trkpt lat="49.0899" lon="3.9798">
        <ele>249</ele>
        <time>2021-05-04T07:38:19Z</time>
      </trkpt>
      <trkpt lat="49.08961" lon="3.98027">
        <ele>248</ele>
        <time>2021-05-04T07:38:26Z</time>
      </trkpt>
      <trkpt lat="49.08955" lon="3.98036">
        <ele>248</ele>
        <time>2021-05-04T07:38:28Z</time>
      </trkpt>
      <trkpt lat="49.08938" lon="3.9805">
        <ele>248</ele>
        <time>2021-05-04T07:38:31Z</time>
      </trkpt>
      <trkpt lat="49.0889" lon="3.98066">
        <ele>245</ele>
        <time>2021-05-04T07:38:40Z</time>
      </trkpt>
      <trkpt lat="49.08739" lon="3.9809">
        <ele>234</ele>
        <time>2021-05-04T07:39:07Z</time>
      </trkpt>
      <trkpt lat="49.08695" lon="3.98107">
        <ele>231</ele>
        <time>2021-05-04T07:39:15Z</time>
      </trkpt>
      <trkpt lat="49.08679" lon="3.98122">
        <ele>231</ele>
        <time>2021-05-04T07:39:18Z</time>
      </trkpt>
      <trkpt lat="49.08632" lon="3.98133">
        <ele>229</ele>
        <time>2021-05-04T07:39:27Z</time>
      </trkpt>
      <trkpt lat="49.08579" lon="3.98119">
        <ele>223</ele>
        <time>2021-05-04T07:39:36Z</time>
      </trkpt>
      <trkpt lat="49.08477" lon="3.98102">
        <ele>219</ele>
        <time>2021-05-04T07:39:54Z</time>
      </trkpt>
      <trkpt lat="49.08438" lon="3.98083">
        <ele>215</ele>
        <time>2021-05-04T07:40:02Z</time>
      </trkpt>
      <trkpt lat="49.08409" lon="3.98045">
        <ele>213</ele>
        <time>2021-05-04T07:40:09Z</time>
      </trkpt>
      <trkpt lat="49.08371" lon="3.97982">
        <ele>211</ele>
        <time>2021-05-04T07:40:19Z</time>
      </trkpt>
      <trkpt lat="49.08348" lon="3.97937">
        <ele>210</ele>
        <time>2021-05-04T07:40:25Z</time>
      </trkpt>
      <trkpt lat="49.08313" lon="3.97856">
        <ele>204</ele>
        <time>2021-05-04T07:40:36Z</time>
      </trkpt>
      <trkpt lat="49.08282" lon="3.97798">
        <ele>201</ele>
        <time>2021-05-04T07:40:45Z</time>
      </trkpt>
      <trkpt lat="49.0825" lon="3.97716">
        <ele>197</ele>
        <time>2021-05-04T07:40:56Z</time>
      </trkpt>
      <trkpt lat="49.08247" lon="3.97645">
        <ele>194</ele>
        <time>2021-05-04T07:41:05Z</time>
      </trkpt>
      <trkpt lat="49.08252" lon="3.97573">
        <ele>191</ele>
        <time>2021-05-04T07:41:13Z</time>
      </trkpt>
      <trkpt lat="49.08245" lon="3.97537">
        <ele>189</ele>
        <time>2021-05-04T07:41:17Z</time>
      </trkpt>
      <trkpt lat="49.0823" lon="3.97506">
        <ele>187</ele>
        <time>2021-05-04T07:41:22Z</time>
      </trkpt>
      <trkpt lat="49.08208" lon="3.97485">
        <ele>185</ele>
        <time>2021-05-04T07:41:27Z</time>
      </trkpt>
      <trkpt lat="49.08158" lon="3.97468">
        <ele>182</ele>
        <time>2021-05-04T07:41:36Z</time>
      </trkpt>
      <trkpt lat="49.08141" lon="3.97465">
        <ele>181</ele>
        <time>2021-05-04T07:41:39Z</time>
      </trkpt>
      <trkpt lat="49.08124" lon="3.97463">
        <ele>180</ele>
        <time>2021-05-04T07:41:42Z</time>
      </trkpt>
      <trkpt lat="49.08099" lon="3.97472">
        <ele>179</ele>
        <time>2021-05-04T07:41:46Z</time>
      </trkpt>
      <trkpt lat="49.08054" lon="3.97516">
        <ele>178</ele>
        <time>2021-05-04T07:41:56Z</time>
      </trkpt>
      <trkpt lat="49.07971" lon="3.97615">
        <ele>174</ele>
        <time>2021-05-04T07:42:15Z</time>
      </trkpt>
      <trkpt lat="49.07957" lon="3.97638">
        <ele>173</ele>
        <time>2021-05-04T07:42:18Z</time>
      </trkpt>
      <trkpt lat="49.07912" lon="3.97757">
        <ele>169</ele>
        <time>2021-05-04T07:42:34Z</time>
      </trkpt>
      <trkpt lat="49.07899" lon="3.97776">
        <ele>169</ele>
        <time>2021-05-04T07:42:37Z</time>
      </trkpt>
      <trkpt lat="49.07878" lon="3.97793">
        <ele>168</ele>
        <time>2021-05-04T07:42:42Z</time>
      </trkpt>
      <trkpt lat="49.07867" lon="3.978">
        <ele>167</ele>
        <time>2021-05-04T07:42:44Z</time>
      </trkpt>
      <trkpt lat="49.07836" lon="3.97805">
        <ele>164</ele>
        <time>2021-05-04T07:42:49Z</time>
      </trkpt>
      <trkpt lat="49.07803" lon="3.97806">
        <ele>163</ele>
        <time>2021-05-04T07:42:55Z</time>
      </trkpt>
      <trkpt lat="49.07728" lon="3.978">
        <ele>161</ele>
        <time>2021-05-04T07:43:09Z</time>
      </trkpt>
      <trkpt lat="49.07677" lon="3.9778">
        <ele>158</ele>
        <time>2021-05-04T07:43:18Z</time>
      </trkpt>
      <trkpt lat="49.07641" lon="3.9775">
        <ele>153</ele>
        <time>2021-05-04T07:43:25Z</time>
      </trkpt>
      <trkpt lat="49.07601" lon="3.97726">
        <ele>150</ele>
        <time>2021-05-04T07:43:33Z</time>
      </trkpt>
      <trkpt lat="49.07546" lon="3.97709">
        <ele>149</ele>
        <time>2021-05-04T07:43:43Z</time>
      </trkpt>
      <trkpt lat="49.07525" lon="3.97696">
        <ele>148</ele>
        <time>2021-05-04T07:43:47Z</time>
      </trkpt>
      <trkpt lat="49.07444" lon="3.97589">
        <ele>141</ele>
        <time>2021-05-04T07:44:06Z</time>
      </trkpt>
      <trkpt lat="49.07412" lon="3.97529">
        <ele>138</ele>
        <time>2021-05-04T07:44:15Z</time>
      </trkpt>
      <trkpt lat="49.07367" lon="3.97396">
        <ele>129</ele>
        <time>2021-05-04T07:44:32Z</time>
      </trkpt>
      <trkpt lat="49.07351" lon="3.97366">
        <ele>128</ele>
        <time>2021-05-04T07:44:37Z</time>
      </trkpt>
      <trkpt lat="49.07318" lon="3.97324">
        <ele>126</ele>
        <time>2021-05-04T07:44:45Z</time>
      </trkpt>
      <trkpt lat="49.07284" lon="3.97303">
        <ele>125</ele>
        <time>2021-05-04T07:44:51Z</time>
      </trkpt>
      <trkpt lat="49.07232" lon="3.97285">
        <ele>122</ele>
        <time>2021-05-04T07:45:01Z</time>
      </trkpt>
      <trkpt lat="49.07195" lon="3.97294">
        <ele>120</ele>
        <time>2021-05-04T07:45:07Z</time>
      </trkpt>
      <trkpt lat="49.07178" lon="3.97306">
        <ele>120</ele>
        <time>2021-05-04T07:45:11Z</time>
      </trkpt>
      <trkpt lat="49.07157" lon="3.97337">
        <ele>119</ele>
        <time>2021-05-04T07:45:16Z</time>
      </trkpt>
      <trkpt lat="49.07142" lon="3.97379">
        <ele>118</ele>
        <time>2021-05-04T07:45:21Z</time>
      </trkpt>
      <trkpt lat="49.07124" lon="3.97457">
        <ele>116</ele>
        <time>2021-05-04T07:45:31Z</time>
      </trkpt>
      <trkpt lat="49.07111" lon="3.97484">
        <ele>115</ele>
        <time>2021-05-04T07:45:35Z</time>
      </trkpt>
      <trkpt lat="49.07083" lon="3.97515">
        <ele>112</ele>
        <time>2021-05-04T07:45:41Z</time>
      </trkpt>
      <trkpt lat="49.07052" lon="3.97526">
        <ele>111</ele>
        <time>2021-05-04T07:45:47Z</time>
      </trkpt>
      <trkpt lat="49.0703" lon="3.97524">
        <ele>110</ele>
        <time>2021-05-04T07:45:51Z</time>
      </trkpt>
      <trkpt lat="49.07002" lon="3.97502">
        <ele>107</ele>
        <time>2021-05-04T07:45:56Z</time>
      </trkpt>
      <trkpt lat="49.06988" lon="3.9748">
        <ele>107</ele>
        <time>2021-05-04T07:46:00Z</time>
      </trkpt>
      <trkpt lat="49.06976" lon="3.97453">
        <ele>107</ele>
        <time>2021-05-04T07:46:04Z</time>
      </trkpt>
      <trkpt lat="49.06972" lon="3.9744">
        <ele>107</ele>
        <time>2021-05-04T07:46:05Z</time>
      </trkpt>
      <trkpt lat="49.06968" lon="3.9741">
        <ele>106</ele>
        <time>2021-05-04T07:46:09Z</time>
      </trkpt>
      <trkpt lat="49.06965" lon="3.97337">
        <ele>103</ele>
        <time>2021-05-04T07:46:17Z</time>
      </trkpt>
      <trkpt lat="49.06959" lon="3.9731">
        <ele>102</ele>
        <time>2021-05-04T07:46:21Z</time>
      </trkpt>
      <trkpt lat="49.06955" lon="3.97297">
        <ele>101</ele>
        <time>2021-05-04T07:46:22Z</time>
      </trkpt>
      <trkpt lat="49.06928" lon="3.97259">
        <ele>99</ele>
        <time>2021-05-04T07:46:29Z</time>
      </trkpt>
      <trkpt lat="49.06845" lon="3.97184">
        <ele>94</ele>
        <time>2021-05-04T07:46:46Z</time>
      </trkpt>
      <trkpt lat="49.06723" lon="3.97083">
        <ele>88</ele>
        <time>2021-05-04T07:47:11Z</time>
      </trkpt>
      <trkpt lat="49.06681" lon="3.97053">
        <ele>87</ele>
        <time>2021-05-04T07:47:19Z</time>
      </trkpt>
      <trkpt lat="49.06621" lon="3.97026">
        <ele>84</ele>
        <time>2021-05-04T07:47:30Z</time>
      </trkpt>
      <trkpt lat="49.06525" lon="3.96992">
        <ele>82</ele>
        <time>2021-05-04T07:47:48Z</time>
      </trkpt>
      <trkpt lat="49.06481" lon="3.96962">
        <ele>80</ele>
        <time>2021-05-04T07:47:56Z</time>
      </trkpt>
      <trkpt lat="49.0644" lon="3.9693">
        <ele>78</ele>
        <time>2021-05-04T07:48:04Z</time>
      </trkpt>
      <trkpt lat="49.06428" lon="3.96918">
        <ele>77</ele>
        <time>2021-05-04T07:48:07Z</time>
      </trkpt>
      <trkpt lat="49.06413" lon="3.96926">
        <ele>77</ele>
        <time>2021-05-04T07:48:10Z</time>
      </trkpt>
      <trkpt lat="49.06394" lon="3.96983">
        <ele>79</ele>
        <time>2021-05-04T07:48:17Z</time>
      </trkpt>
      <trkpt lat="49.06377" lon="3.97046">
        <ele>80</ele>
        <time>2021-05-04T07:48:25Z</time>
      </trkpt>
      <trkpt lat="49.06352" lon="3.97181">
        <ele>82</ele>
        <time>2021-05-04T07:48:42Z</time>
      </trkpt>
      <trkpt lat="49.06322" lon="3.97392">
        <ele>85</ele>
        <time>2021-05-04T07:49:07Z</time>
      </trkpt>
      <trkpt lat="49.06298" lon="3.97532">
        <ele>86</ele>
        <time>2021-05-04T07:49:24Z</time>
      </trkpt>
      <trkpt lat="49.0626" lon="3.97676">
        <ele>84</ele>
        <time>2021-05-04T07:49:42Z</time>
      </trkpt>
      <trkpt lat="49.0623" lon="3.97739">
        <ele>82</ele>
        <time>2021-05-04T07:49:51Z</time>
      </trkpt>
      <trkpt lat="49.06211" lon="3.9779">
        <ele>82</ele>
        <time>2021-05-04T07:49:58Z</time>
      </trkpt>
      <trkpt lat="49.06066" lon="3.98244">
        <ele>76</ele>
        <time>2021-05-04T07:50:57Z</time>
      </trkpt>
      <trkpt lat="49.05966" lon="3.98536">
        <ele>78</ele>
        <time>2021-05-04T07:51:35Z</time>
      </trkpt>
      <trkpt lat="49.05947" lon="3.986">
        <ele>77</ele>
        <time>2021-05-04T07:51:43Z</time>
      </trkpt>
      <trkpt lat="49.05927" lon="3.98649">
        <ele>76</ele>
        <time>2021-05-04T07:51:50Z</time>
      </trkpt>
      <trkpt lat="49.05905" lon="3.98713">
        <ele>75</ele>
        <time>2021-05-04T07:51:58Z</time>
      </trkpt>
      <trkpt lat="49.05862" lon="3.98862">
        <ele>74</ele>
        <time>2021-05-04T07:52:17Z</time>
      </trkpt>
      <trkpt lat="49.05772" lon="3.99141">
        <ele>72</ele>
        <time>2021-05-04T07:52:54Z</time>
      </trkpt>
      <trkpt lat="49.057" lon="3.99349">
        <ele>71</ele>
        <time>2021-05-04T07:53:21Z</time>
      </trkpt>
      <trkpt lat="49.05591" lon="3.99679">
        <ele>71</ele>
        <time>2021-05-04T07:54:04Z</time>
      </trkpt>
      <trkpt lat="49.05572" lon="3.9972">
        <ele>71</ele>
        <time>2021-05-04T07:54:10Z</time>
      </trkpt>
      <trkpt lat="49.05569" lon="3.99725">
        <ele>71</ele>
        <time>2021-05-04T07:54:11Z</time>
      </trkpt>
      <trkpt lat="49.05563" lon="3.99727">
        <ele>71</ele>
        <time>2021-05-04T07:54:12Z</time>
      </trkpt>
      <trkpt lat="49.05558" lon="3.99727">
        <ele>71</ele>
        <time>2021-05-04T07:54:13Z</time>
      </trkpt>
      <trkpt lat="49.05539" lon="3.99698">
        <ele>71</ele>
        <time>2021-05-04T07:54:17Z</time>
      </trkpt>
      <trkpt lat="49.05526" lon="3.99691">
        <ele>71</ele>
        <time>2021-05-04T07:54:20Z</time>
      </trkpt>
      <trkpt lat="49.05517" lon="3.997">
        <ele>71</ele>
        <time>2021-05-04T07:54:22Z</time>
      </trkpt>
      <trkpt lat="49.05484" lon="3.99837">
        <ele>71</ele>
        <time>2021-05-04T07:54:39Z</time>
      </trkpt>
      <trkpt lat="49.05452" lon="3.99888">
        <ele>70</ele>
        <time>2021-05-04T07:54:47Z</time>
      </trkpt>
      <trkpt lat="49.05385" lon="3.99978">
        <ele>71</ele>
        <time>2021-05-04T07:55:03Z</time>
      </trkpt>
      <trkpt lat="49.05341" lon="4.00043">
        <ele>70</ele>
        <time>2021-05-04T07:55:14Z</time>
      </trkpt>
      <trkpt lat="49.053" lon="4.00111">
        <ele>71</ele>
        <time>2021-05-04T07:55:25Z</time>
      </trkpt>
      <trkpt lat="49.05293" lon="4.00126">
        <ele>71</ele>
        <time>2021-05-04T07:55:27Z</time>
      </trkpt>
      <trkpt lat="49.05273" lon="4.00197">
        <ele>72</ele>
        <time>2021-05-04T07:55:36Z</time>
      </trkpt>
      <trkpt lat="49.05232" lon="4.00318">
        <ele>71</ele>
        <time>2021-05-04T07:55:52Z</time>
      </trkpt>
      <trkpt lat="49.0521" lon="4.00367">
        <ele>72</ele>
        <time>2021-05-04T07:55:59Z</time>
      </trkpt>
      <trkpt lat="49.05189" lon="4.00431">
        <ele>72</ele>
        <time>2021-05-04T07:56:07Z</time>
      </trkpt>
      <trkpt lat="49.05113" lon="4.00613">
        <ele>72</ele>
        <time>2021-05-04T07:56:32Z</time>
      </trkpt>
      <trkpt lat="49.05085" lon="4.00697">
        <ele>73</ele>
        <time>2021-05-04T07:56:43Z</time>
      </trkpt>
      <trkpt lat="49.05104" lon="4.00716">
        <ele>73</ele>
        <time>2021-05-04T07:56:47Z</time>
      </trkpt>
      <trkpt lat="49.05111" lon="4.00733">
        <ele>74</ele>
        <time>2021-05-04T07:56:49Z</time>
      </trkpt>
      <trkpt lat="49.05136" lon="4.00864">
        <ele>74</ele>
        <time>2021-05-04T07:57:05Z</time>
      </trkpt>
      <trkpt lat="49.05158" lon="4.00918">
        <ele>74</ele>
        <time>2021-05-04T07:57:13Z</time>
      </trkpt>
      <trkpt lat="49.05193" lon="4.00987">
        <ele>75</ele>
        <time>2021-05-04T07:57:23Z</time>
      </trkpt>
      <trkpt lat="49.05222" lon="4.01018">
        <ele>76</ele>
        <time>2021-05-04T07:57:29Z</time>
      </trkpt>
      <trkpt lat="49.05215" lon="4.01129">
        <ele>76</ele>
        <time>2021-05-04T07:57:42Z</time>
      </trkpt>
      <trkpt lat="49.05215" lon="4.01135">
        <ele>76</ele>
        <time>2021-05-04T07:57:43Z</time>
      </trkpt>
      <trkpt lat="49.0522" lon="4.01145">
        <ele>76</ele>
        <time>2021-05-04T07:57:44Z</time>
      </trkpt>
      <trkpt lat="49.05238" lon="4.01159">
        <ele>77</ele>
        <time>2021-05-04T07:57:48Z</time>
      </trkpt>
      <trkpt lat="49.05285" lon="4.01174">
        <ele>77</ele>
        <time>2021-05-04T07:57:57Z</time>
      </trkpt>
      <trkpt lat="49.05372" lon="4.01215">
        <ele>78</ele>
        <time>2021-05-04T07:58:13Z</time>
      </trkpt>
      <trkpt lat="49.0551" lon="4.01274">
        <ele>81</ele>
        <time>2021-05-04T07:58:38Z</time>
      </trkpt>
      <trkpt lat="49.05529" lon="4.01277">
        <ele>82</ele>
        <time>2021-05-04T07:58:42Z</time>
      </trkpt>
      <trkpt lat="49.05574" lon="4.01255">
        <ele>84</ele>
        <time>2021-05-04T07:58:50Z</time>
      </trkpt>
      <trkpt lat="49.05714" lon="4.01233">
        <ele>86</ele>
        <time>2021-05-04T07:59:15Z</time>
      </trkpt>
      <trkpt lat="49.05748" lon="4.01259">
        <ele>88</ele>
        <time>2021-05-04T07:59:22Z</time>
      </trkpt>
      <trkpt lat="49.05757" lon="4.01327">
        <ele>93</ele>
        <time>2021-05-04T07:59:30Z</time>
      </trkpt>
      <trkpt lat="49.05779" lon="4.01388">
        <ele>102</ele>
        <time>2021-05-04T07:59:38Z</time>
      </trkpt>
      <trkpt lat="49.0577" lon="4.01526">
        <ele>113</ele>
        <time>2021-05-04T07:59:54Z</time>
      </trkpt>
      <trkpt lat="49.05803" lon="4.01577">
        <ele>121</ele>
        <time>2021-05-04T08:00:03Z</time>
      </trkpt>
      <trkpt lat="49.05846" lon="4.01603">
        <ele>128</ele>
        <time>2021-05-04T08:00:11Z</time>
      </trkpt>
      <trkpt lat="49.0589" lon="4.0162">
        <ele>134</ele>
        <time>2021-05-04T08:00:19Z</time>
      </trkpt>
      <trkpt lat="49.06018" lon="4.01696">
        <ele>155</ele>
        <time>2021-05-04T08:00:43Z</time>
      </trkpt>
      <trkpt lat="49.061" lon="4.01718">
        <ele>168</ele>
        <time>2021-05-04T08:00:58Z</time>
      </trkpt>
      <trkpt lat="49.06141" lon="4.01747">
        <ele>176</ele>
        <time>2021-05-04T08:01:06Z</time>
      </trkpt>
      <trkpt lat="49.06185" lon="4.01766">
        <ele>182</ele>
        <time>2021-05-04T08:01:14Z</time>
      </trkpt>
      <trkpt lat="49.06222" lon="4.01801">
        <ele>187</ele>
        <time>2021-05-04T08:01:22Z</time>
      </trkpt>
      <trkpt lat="49.06281" lon="4.01913">
        <ele>197</ele>
        <time>2021-05-04T08:01:39Z</time>
      </trkpt>
      <trkpt lat="49.06302" lon="4.01979">
        <ele>200</ele>
        <time>2021-05-04T08:01:47Z</time>
      </trkpt>
      <trkpt lat="49.06304" lon="4.02044">
        <ele>201</ele>
        <time>2021-05-04T08:01:55Z</time>
      </trkpt>
      <trkpt lat="49.06304" lon="4.0227">
        <ele>201</ele>
        <time>2021-05-04T08:02:21Z</time>
      </trkpt>
      <trkpt lat="49.06309" lon="4.02335">
        <ele>202</ele>
        <time>2021-05-04T08:02:29Z</time>
      </trkpt>
      <trkpt lat="49.06317" lon="4.024">
        <ele>201</ele>
        <time>2021-05-04T08:02:37Z</time>
      </trkpt>
      <trkpt lat="49.06346" lon="4.02542">
        <ele>204</ele>
        <time>2021-05-04T08:02:54Z</time>
      </trkpt>
      <trkpt lat="49.0637" lon="4.02606">
        <ele>205</ele>
        <time>2021-05-04T08:03:03Z</time>
      </trkpt>
      <trkpt lat="49.06401" lon="4.02659">
        <ele>205</ele>
        <time>2021-05-04T08:03:11Z</time>
      </trkpt>
      <trkpt lat="49.06439" lon="4.02708">
        <ele>206</ele>
        <time>2021-05-04T08:03:20Z</time>
      </trkpt>
      <trkpt lat="49.06454" lon="4.02735">
        <ele>206</ele>
        <time>2021-05-04T08:03:24Z</time>
      </trkpt>
      <trkpt lat="49.06482" lon="4.02749">
        <ele>207</ele>
        <time>2021-05-04T08:03:29Z</time>
      </trkpt>
      <trkpt lat="49.06506" lon="4.02757">
        <ele>209</ele>
        <time>2021-05-04T08:03:34Z</time>
      </trkpt>
      <trkpt lat="49.06518" lon="4.02754">
        <ele>209</ele>
        <time>2021-05-04T08:03:36Z</time>
      </trkpt>
      <trkpt lat="49.06557" lon="4.02789">
        <ele>209</ele>
        <time>2021-05-04T08:03:44Z</time>
      </trkpt>
      <trkpt lat="49.06586" lon="4.02841">
        <ele>207</ele>
        <time>2021-05-04T08:03:52Z</time>
      </trkpt>
      <trkpt lat="49.06612" lon="4.02882">
        <ele>204</ele>
        <time>2021-05-04T08:03:58Z</time>
      </trkpt>
      <trkpt lat="49.06649" lon="4.02933">
        <ele>200</ele>
        <time>2021-05-04T08:04:07Z</time>
      </trkpt>
      <trkpt lat="49.06657" lon="4.02943">
        <ele>199</ele>
        <time>2021-05-04T08:04:09Z</time>
      </trkpt>
      <trkpt lat="49.06708" lon="4.0298">
        <ele>192</ele>
        <time>2021-05-04T08:04:19Z</time>
      </trkpt>
      <trkpt lat="49.06711" lon="4.02987">
        <ele>191</ele>
        <time>2021-05-04T08:04:20Z</time>
      </trkpt>
      <trkpt lat="49.06713" lon="4.02994">
        <ele>190</ele>
        <time>2021-05-04T08:04:21Z</time>
      </trkpt>
      <trkpt lat="49.06705" lon="4.03066">
        <ele>188</ele>
        <time>2021-05-04T08:04:29Z</time>
      </trkpt>
      <trkpt lat="49.06696" lon="4.03116">
        <ele>186</ele>
        <time>2021-05-04T08:04:36Z</time>
      </trkpt>
      <trkpt lat="49.06669" lon="4.03177">
        <ele>184</ele>
        <time>2021-05-04T08:04:44Z</time>
      </trkpt>
      <trkpt lat="49.06657" lon="4.03198">
        <ele>182</ele>
        <time>2021-05-04T08:04:47Z</time>
      </trkpt>
      <trkpt lat="49.06642" lon="4.03213">
        <ele>180</ele>
        <time>2021-05-04T08:04:51Z</time>
      </trkpt>
      <trkpt lat="49.06591" lon="4.03231">
        <ele>175</ele>
        <time>2021-05-04T08:05:00Z</time>
      </trkpt>
      <trkpt lat="49.06566" lon="4.03243">
        <ele>172</ele>
        <time>2021-05-04T08:05:05Z</time>
      </trkpt>
      <trkpt lat="49.06551" lon="4.03261">
        <ele>170</ele>
        <time>2021-05-04T08:05:08Z</time>
      </trkpt>
      <trkpt lat="49.06521" lon="4.03319">
        <ele>163</ele>
        <time>2021-05-04T08:05:17Z</time>
      </trkpt>
      <trkpt lat="49.06475" lon="4.03379">
        <ele>157</ele>
        <time>2021-05-04T08:05:27Z</time>
      </trkpt>
      <trkpt lat="49.06472" lon="4.03389">
        <ele>156</ele>
        <time>2021-05-04T08:05:29Z</time>
      </trkpt>
      <trkpt lat="49.06468" lon="4.03473">
        <ele>152</ele>
        <time>2021-05-04T08:05:38Z</time>
      </trkpt>
      <trkpt lat="49.06462" lon="4.03779">
        <ele>133</ele>
        <time>2021-05-04T08:06:14Z</time>
      </trkpt>
      <trkpt lat="49.06437" lon="4.03997">
        <ele>120</ele>
        <time>2021-05-04T08:06:40Z</time>
      </trkpt>
      <trkpt lat="49.06414" lon="4.04277">
        <ele>108</ele>
        <time>2021-05-04T08:07:13Z</time>
      </trkpt>
      <trkpt lat="49.06414" lon="4.04302">
        <ele>107</ele>
        <time>2021-05-04T08:07:16Z</time>
      </trkpt>
      <trkpt lat="49.06436" lon="4.04341">
        <ele>106</ele>
        <time>2021-05-04T08:07:22Z</time>
      </trkpt>
      <trkpt lat="49.06439" lon="4.0439">
        <ele>104</ele>
        <time>2021-05-04T08:07:27Z</time>
      </trkpt>
      <trkpt lat="49.0646" lon="4.0443">
        <ele>102</ele>
        <time>2021-05-04T08:07:33Z</time>
      </trkpt>
      <trkpt lat="49.06491" lon="4.0444">
        <ele>102</ele>
        <time>2021-05-04T08:07:39Z</time>
      </trkpt>
      <trkpt lat="49.06672" lon="4.04453">
        <ele>95</ele>
        <time>2021-05-04T08:08:11Z</time>
      </trkpt>
      <trkpt lat="49.06699" lon="4.04465">
        <ele>95</ele>
        <time>2021-05-04T08:08:16Z</time>
      </trkpt>
      <trkpt lat="49.0673" lon="4.04497">
        <ele>93</ele>
        <time>2021-05-04T08:08:23Z</time>
      </trkpt>
      <trkpt lat="49.06741" lon="4.04518">
        <ele>92</ele>
        <time>2021-05-04T08:08:26Z</time>
      </trkpt>
      <trkpt lat="49.0675" lon="4.04556">
        <ele>89</ele>
        <time>2021-05-04T08:08:31Z</time>
      </trkpt>
      <trkpt lat="49.06753" lon="4.04596">
        <ele>87</ele>
        <time>2021-05-04T08:08:35Z</time>
      </trkpt>
      <trkpt lat="49.06748" lon="4.04628">
        <ele>86</ele>
        <time>2021-05-04T08:08:39Z</time>
      </trkpt>
      <trkpt lat="49.06765" lon="4.04678">
        <ele>85</ele>
        <time>2021-05-04T08:08:46Z</time>
      </trkpt>
      <trkpt lat="49.06784" lon="4.04707">
        <ele>84</ele>
        <time>2021-05-04T08:08:51Z</time>
      </trkpt>
      <trkpt lat="49.06883" lon="4.04749">
        <ele>86</ele>
        <time>2021-05-04T08:09:09Z</time>
      </trkpt>
      <trkpt lat="49.06925" lon="4.04775">
        <ele>86</ele>
        <time>2021-05-04T08:09:17Z</time>
      </trkpt>
      <trkpt lat="49.06957" lon="4.0478">
        <ele>86</ele>
        <time>2021-05-04T08:09:23Z</time>
      </trkpt>
      <trkpt lat="49.06996" lon="4.04818">
        <ele>86</ele>
        <time>2021-05-04T08:09:31Z</time>
      </trkpt>
      <trkpt lat="49.07033" lon="4.04864">
        <ele>86</ele>
        <time>2021-05-04T08:09:39Z</time>
      </trkpt>
      <trkpt lat="49.07059" lon="4.04906">
        <ele>86</ele>
        <time>2021-05-04T08:09:46Z</time>
      </trkpt>
      <trkpt lat="49.07062" lon="4.0492">
        <ele>86</ele>
        <time>2021-05-04T08:09:48Z</time>
      </trkpt>
      <trkpt lat="49.07063" lon="4.04927">
        <ele>86</ele>
        <time>2021-05-04T08:09:49Z</time>
      </trkpt>
      <trkpt lat="49.07054" lon="4.05001">
        <ele>87</ele>
        <time>2021-05-04T08:09:58Z</time>
      </trkpt>
      <trkpt lat="49.07052" lon="4.05059">
        <ele>85</ele>
        <time>2021-05-04T08:10:04Z</time>
      </trkpt>
      <trkpt lat="49.07078" lon="4.05137">
        <ele>85</ele>
        <time>2021-05-04T08:10:14Z</time>
      </trkpt>
      <trkpt lat="49.07141" lon="4.05256">
        <ele>83</ele>
        <time>2021-05-04T08:10:32Z</time>
      </trkpt>
      <trkpt lat="49.07166" lon="4.05309">
        <ele>84</ele>
        <time>2021-05-04T08:10:40Z</time>
      </trkpt>
      <trkpt lat="49.07194" lon="4.0535">
        <ele>87</ele>
        <time>2021-05-04T08:10:47Z</time>
      </trkpt>
      <trkpt lat="49.07236" lon="4.05433">
        <ele>91</ele>
        <time>2021-05-04T08:10:59Z</time>
      </trkpt>
      <trkpt lat="49.07244" lon="4.05453">
        <ele>90</ele>
        <time>2021-05-04T08:11:02Z</time>
      </trkpt>
      <trkpt lat="49.07276" lon="4.05505">
        <ele>88</ele>
        <time>2021-05-04T08:11:10Z</time>
      </trkpt>
      <trkpt lat="49.07431" lon="4.05798">
        <ele>86</ele>
        <time>2021-05-04T08:11:54Z</time>
      </trkpt>
      <trkpt lat="49.07498" lon="4.05911">
        <ele>88</ele>
        <time>2021-05-04T08:12:12Z</time>
      </trkpt>
      <trkpt lat="49.07508" lon="4.05934">
        <ele>88</ele>
        <time>2021-05-04T08:12:15Z</time>
      </trkpt>
      <trkpt lat="49.07507" lon="4.05951">
        <ele>87</ele>
        <time>2021-05-04T08:12:17Z</time>
      </trkpt>
      <trkpt lat="49.07497" lon="4.05984">
        <ele>87</ele>
        <time>2021-05-04T08:12:21Z</time>
      </trkpt>
      <trkpt lat="49.07498" lon="4.06004">
        <ele>87</ele>
        <time>2021-05-04T08:12:24Z</time>
      </trkpt>
      <trkpt lat="49.07501" lon="4.06012">
        <ele>88</ele>
        <time>2021-05-04T08:12:25Z</time>
      </trkpt>
      <trkpt lat="49.0751" lon="4.0602">
        <ele>88</ele>
        <time>2021-05-04T08:12:26Z</time>
      </trkpt>
      <trkpt lat="49.07542" lon="4.06022">
        <ele>88</ele>
        <time>2021-05-04T08:12:32Z</time>
      </trkpt>
      <trkpt lat="49.07588" lon="4.06053">
        <ele>88</ele>
        <time>2021-05-04T08:12:41Z</time>
      </trkpt>
      <trkpt lat="49.07661" lon="4.06111">
        <ele>90</ele>
        <time>2021-05-04T08:12:56Z</time>
      </trkpt>
      <trkpt lat="49.07719" lon="4.06169">
        <ele>91</ele>
        <time>2021-05-04T08:13:08Z</time>
      </trkpt>
      <trkpt lat="49.07753" lon="4.06219">
        <ele>92</ele>
        <time>2021-05-04T08:13:17Z</time>
      </trkpt>
      <trkpt lat="49.07886" lon="4.06436">
        <ele>91</ele>
        <time>2021-05-04T08:13:51Z</time>
      </trkpt>
      <trkpt lat="49.0791" lon="4.06486">
        <ele>91</ele>
        <time>2021-05-04T08:13:58Z</time>
      </trkpt>
      <trkpt lat="49.07939" lon="4.06559">
        <ele>92</ele>
        <time>2021-05-04T08:14:08Z</time>
      </trkpt>
      <trkpt lat="49.07956" lon="4.06623">
        <ele>93</ele>
        <time>2021-05-04T08:14:16Z</time>
      </trkpt>
      <trkpt lat="49.07982" lon="4.06764">
        <ele>93</ele>
        <time>2021-05-04T08:14:33Z</time>
      </trkpt>
      <trkpt lat="49.08008" lon="4.06976">
        <ele>90</ele>
        <time>2021-05-04T08:14:59Z</time>
      </trkpt>
      <trkpt lat="49.08037" lon="4.07183">
        <ele>92</ele>
        <time>2021-05-04T08:15:23Z</time>
      </trkpt>
      <trkpt lat="49.08037" lon="4.07258">
        <ele>92</ele>
        <time>2021-05-04T08:15:32Z</time>
      </trkpt>
      <trkpt lat="49.0802" lon="4.07406">
        <ele>91</ele>
        <time>2021-05-04T08:15:50Z</time>
      </trkpt>
      <trkpt lat="49.07982" lon="4.07686">
        <ele>94</ele>
        <time>2021-05-04T08:16:23Z</time>
      </trkpt>
      <trkpt lat="49.07968" lon="4.0777">
        <ele>94</ele>
        <time>2021-05-04T08:16:33Z</time>
      </trkpt>
      <trkpt lat="49.07947" lon="4.07922">
        <ele>95</ele>
        <time>2021-05-04T08:16:51Z</time>
      </trkpt>
      <trkpt lat="49.07943" lon="4.07982">
        <ele>96</ele>
        <time>2021-05-04T08:16:58Z</time>
      </trkpt>
      <trkpt lat="49.07946" lon="4.08062">
        <ele>98</ele>
        <time>2021-05-04T08:17:07Z</time>
      </trkpt>
      <trkpt lat="49.07957" lon="4.08137">
        <ele>99</ele>
        <time>2021-05-04T08:17:16Z</time>
      </trkpt>
      <trkpt lat="49.0799" lon="4.0828">
        <ele>96</ele>
        <time>2021-05-04T08:17:34Z</time>
      </trkpt>
      <trkpt lat="49.0802" lon="4.08393">
        <ele>98</ele>
        <time>2021-05-04T08:17:48Z</time>
      </trkpt>
      <trkpt lat="49.08036" lon="4.08468">
        <ele>99</ele>
        <time>2021-05-04T08:17:57Z</time>
      </trkpt>
      <trkpt lat="49.08256" lon="4.09204">
        <ele>98</ele>
        <time>2021-05-04T08:19:32Z</time>
      </trkpt>
      <trkpt lat="49.08285" lon="4.09257">
        <ele>99</ele>
        <time>2021-05-04T08:19:40Z</time>
      </trkpt>
      <trkpt lat="49.0832" lon="4.09303">
        <ele>98</ele>
        <time>2021-05-04T08:19:48Z</time>
      </trkpt>
      <trkpt lat="49.08361" lon="4.09336">
        <ele>96</ele>
        <time>2021-05-04T08:19:56Z</time>
      </trkpt>
      <trkpt lat="49.08533" lon="4.09457">
        <ele>99</ele>
        <time>2021-05-04T08:20:30Z</time>
      </trkpt>
      <trkpt lat="49.08593" lon="4.09518">
        <ele>101</ele>
        <time>2021-05-04T08:20:43Z</time>
      </trkpt>
      <trkpt lat="49.08638" lon="4.09534">
        <ele>104</ele>
        <time>2021-05-04T08:20:51Z</time>
      </trkpt>
      <trkpt lat="49.08679" lon="4.09563">
        <ele>107</ele>
        <time>2021-05-04T08:20:59Z</time>
      </trkpt>
      <trkpt lat="49.08723" lon="4.09597">
        <ele>109</ele>
        <time>2021-05-04T08:21:08Z</time>
      </trkpt>
      <trkpt lat="49.0876" lon="4.09638">
        <ele>109</ele>
        <time>2021-05-04T08:21:16Z</time>
      </trkpt>
      <trkpt lat="49.0897" lon="4.09917">
        <ele>112</ele>
        <time>2021-05-04T08:22:05Z</time>
      </trkpt>
      <trkpt lat="49.09017" lon="4.09974">
        <ele>114</ele>
        <time>2021-05-04T08:22:16Z</time>
      </trkpt>
      <trkpt lat="49.0908" lon="4.1006">
        <ele>115</ele>
        <time>2021-05-04T08:22:31Z</time>
      </trkpt>
      <trkpt lat="49.09233" lon="4.10255">
        <ele>115</ele>
        <time>2021-05-04T08:23:07Z</time>
      </trkpt>
      <trkpt lat="49.09304" lon="4.10355">
        <ele>114</ele>
        <time>2021-05-04T08:23:24Z</time>
      </trkpt>
      <trkpt lat="49.09336" lon="4.10393">
        <ele>114</ele>
        <time>2021-05-04T08:23:31Z</time>
      </trkpt>
      <trkpt lat="49.09371" lon="4.10443">
        <ele>115</ele>
        <time>2021-05-04T08:23:40Z</time>
      </trkpt>
      <trkpt lat="49.09447" lon="4.1054">
        <ele>116</ele>
        <time>2021-05-04T08:23:57Z</time>
      </trkpt>
      <trkpt lat="49.09592" lon="4.10735">
        <ele>114</ele>
        <time>2021-05-04T08:24:32Z</time>
      </trkpt>
      <trkpt lat="49.09631" lon="4.10781">
        <ele>113</ele>
        <time>2021-05-04T08:24:40Z</time>
      </trkpt>
      <trkpt lat="49.09703" lon="4.10878">
        <ele>113</ele>
        <time>2021-05-04T08:24:57Z</time>
      </trkpt>
      <trkpt lat="49.09885" lon="4.11109">
        <ele>118</ele>
        <time>2021-05-04T08:25:40Z</time>
      </trkpt>
      <trkpt lat="49.09919" lon="4.11158">
        <ele>118</ele>
        <time>2021-05-04T08:25:48Z</time>
      </trkpt>
      <trkpt lat="49.09997" lon="4.11255">
        <ele>119</ele>
        <time>2021-05-04T08:26:06Z</time>
      </trkpt>
      <trkpt lat="49.10064" lon="4.11349">
        <ele>117</ele>
        <time>2021-05-04T08:26:22Z</time>
      </trkpt>
      <trkpt lat="49.10139" lon="4.11439">
        <ele>118</ele>
        <time>2021-05-04T08:26:39Z</time>
      </trkpt>
      <trkpt lat="49.10174" lon="4.11492">
        <ele>118</ele>
        <time>2021-05-04T08:26:48Z</time>
      </trkpt>
      <trkpt lat="49.10237" lon="4.11573">
        <ele>121</ele>
        <time>2021-05-04T08:27:02Z</time>
      </trkpt>
      <trkpt lat="49.10277" lon="4.11629">
        <ele>122</ele>
        <time>2021-05-04T08:27:12Z</time>
      </trkpt>
      <trkpt lat="49.10319" lon="4.11681">
        <ele>124</ele>
        <time>2021-05-04T08:27:22Z</time>
      </trkpt>
      <trkpt lat="49.10372" lon="4.11728">
        <ele>126</ele>
        <time>2021-05-04T08:27:32Z</time>
      </trkpt>
      <trkpt lat="49.10399" lon="4.11699">
        <ele>128</ele>
        <time>2021-05-04T08:27:38Z</time>
      </trkpt>
      <trkpt lat="49.10428" lon="4.11658">
        <ele>131</ele>
        <time>2021-05-04T08:27:45Z</time>
      </trkpt>
      <trkpt lat="49.1046" lon="4.11597">
        <ele>135</ele>
        <time>2021-05-04T08:27:54Z</time>
      </trkpt>
      <trkpt lat="49.10497" lon="4.11552">
        <ele>139</ele>
        <time>2021-05-04T08:28:03Z</time>
      </trkpt>
      <trkpt lat="49.10539" lon="4.11527">
        <ele>140</ele>
        <time>2021-05-04T08:28:11Z</time>
      </trkpt>
      <trkpt lat="49.10585" lon="4.11515">
        <ele>142</ele>
        <time>2021-05-04T08:28:19Z</time>
      </trkpt>
      <trkpt lat="49.10628" lon="4.11493">
        <ele>142</ele>
        <time>2021-05-04T08:28:27Z</time>
      </trkpt>
      <trkpt lat="49.10668" lon="4.11458">
        <ele>142</ele>
        <time>2021-05-04T08:28:36Z</time>
      </trkpt>
      <trkpt lat="49.10748" lon="4.11368">
        <ele>139</ele>
        <time>2021-05-04T08:28:53Z</time>
      </trkpt>
      <trkpt lat="49.10761" lon="4.1136">
        <ele>139</ele>
        <time>2021-05-04T08:28:56Z</time>
      </trkpt>
      <trkpt lat="49.1077" lon="4.11348">
        <ele>139</ele>
        <time>2021-05-04T08:28:58Z</time>
      </trkpt>
      <trkpt lat="49.10858" lon="4.11283">
        <ele>137</ele>
        <time>2021-05-04T08:29:15Z</time>
      </trkpt>
      <trkpt lat="49.10909" lon="4.11255">
        <ele>138</ele>
        <time>2021-05-04T08:29:25Z</time>
      </trkpt>
      <trkpt lat="49.11003" lon="4.11192">
        <ele>141</ele>
        <time>2021-05-04T08:29:43Z</time>
      </trkpt>
      <trkpt lat="49.11097" lon="4.11135">
        <ele>144</ele>
        <time>2021-05-04T08:30:01Z</time>
      </trkpt>
      <trkpt lat="49.11146" lon="4.11108">
        <ele>146</ele>
        <time>2021-05-04T08:30:10Z</time>
      </trkpt>
      <trkpt lat="49.11183" lon="4.1108">
        <ele>147</ele>
        <time>2021-05-04T08:30:18Z</time>
      </trkpt>
      <trkpt lat="49.11225" lon="4.11054">
        <ele>148</ele>
        <time>2021-05-04T08:30:26Z</time>
      </trkpt>
      <trkpt lat="49.11292" lon="4.11">
        <ele>145</ele>
        <time>2021-05-04T08:30:39Z</time>
      </trkpt>
      <trkpt lat="49.11336" lon="4.1096">
        <ele>143</ele>
        <time>2021-05-04T08:30:48Z</time>
      </trkpt>
      <trkpt lat="49.11381" lon="4.10928">
        <ele>145</ele>
        <time>2021-05-04T08:30:57Z</time>
      </trkpt>
      <trkpt lat="49.11424" lon="4.10906">
        <ele>146</ele>
        <time>2021-05-04T08:31:05Z</time>
      </trkpt>
      <trkpt lat="49.1147" lon="4.10892">
        <ele>148</ele>
        <time>2021-05-04T08:31:14Z</time>
      </trkpt>
      <trkpt lat="49.1156" lon="4.1088">
        <ele>151</ele>
        <time>2021-05-04T08:31:30Z</time>
      </trkpt>
      <trkpt lat="49.11654" lon="4.1089">
        <ele>155</ele>
        <time>2021-05-04T08:31:46Z</time>
      </trkpt>
      <trkpt lat="49.11753" lon="4.1089">
        <ele>158</ele>
        <time>2021-05-04T08:32:04Z</time>
      </trkpt>
      <trkpt lat="49.11801" lon="4.10884">
        <ele>159</ele>
        <time>2021-05-04T08:32:13Z</time>
      </trkpt>
      <trkpt lat="49.11848" lon="4.10888">
        <ele>160</ele>
        <time>2021-05-04T08:32:21Z</time>
      </trkpt>
      <trkpt lat="49.11895" lon="4.10902">
        <ele>161</ele>
        <time>2021-05-04T08:32:30Z</time>
      </trkpt>
      <trkpt lat="49.1194" lon="4.1092">
        <ele>162</ele>
        <time>2021-05-04T08:32:38Z</time>
      </trkpt>
      <trkpt lat="49.11984" lon="4.10932">
        <ele>162</ele>
        <time>2021-05-04T08:32:46Z</time>
      </trkpt>
      <trkpt lat="49.12031" lon="4.10938">
        <ele>162</ele>
        <time>2021-05-04T08:32:54Z</time>
      </trkpt>
      <trkpt lat="49.12077" lon="4.10939">
        <ele>163</ele>
        <time>2021-05-04T08:33:02Z</time>
      </trkpt>
      <trkpt lat="49.12123" lon="4.10926">
        <ele>162</ele>
        <time>2021-05-04T08:33:11Z</time>
      </trkpt>
      <trkpt lat="49.12205" lon="4.10895">
        <ele>163</ele>
        <time>2021-05-04T08:33:26Z</time>
      </trkpt>
      <trkpt lat="49.12262" lon="4.10879">
        <ele>166</ele>
        <time>2021-05-04T08:33:36Z</time>
      </trkpt>
      <trkpt lat="49.12405" lon="4.1086">
        <ele>169</ele>
        <time>2021-05-04T08:34:02Z</time>
      </trkpt>
      <trkpt lat="49.12495" lon="4.10858">
        <ele>172</ele>
        <time>2021-05-04T08:34:18Z</time>
      </trkpt>
      <trkpt lat="49.12547" lon="4.10851">
        <ele>173</ele>
        <time>2021-05-04T08:34:27Z</time>
      </trkpt>
      <trkpt lat="49.12639" lon="4.10797">
        <ele>172</ele>
        <time>2021-05-04T08:34:44Z</time>
      </trkpt>
      <trkpt lat="49.12681" lon="4.10767">
        <ele>173</ele>
        <time>2021-05-04T08:34:53Z</time>
      </trkpt>
      <trkpt lat="49.12769" lon="4.10712">
        <ele>175</ele>
        <time>2021-05-04T08:35:10Z</time>
      </trkpt>
      <trkpt lat="49.1281" lon="4.10678">
        <ele>176</ele>
        <time>2021-05-04T08:35:18Z</time>
      </trkpt>
      <trkpt lat="49.12897" lon="4.10616">
        <ele>178</ele>
        <time>2021-05-04T08:35:35Z</time>
      </trkpt>
      <trkpt lat="49.12989" lon="4.10561">
        <ele>188</ele>
        <time>2021-05-04T08:35:53Z</time>
      </trkpt>
      <trkpt lat="49.13024" lon="4.10544">
        <ele>188</ele>
        <time>2021-05-04T08:35:59Z</time>
      </trkpt>
      <trkpt lat="49.13111" lon="4.10525">
        <ele>191</ele>
        <time>2021-05-04T08:36:15Z</time>
      </trkpt>
      <trkpt lat="49.13167" lon="4.10503">
        <ele>195</ele>
        <time>2021-05-04T08:36:25Z</time>
      </trkpt>
      <trkpt lat="49.13198" lon="4.1048">
        <ele>198</ele>
        <time>2021-05-04T08:36:31Z</time>
      </trkpt>
      <trkpt lat="49.13293" lon="4.10331">
        <ele>197</ele>
        <time>2021-05-04T08:36:55Z</time>
      </trkpt>
      <trkpt lat="49.13329" lon="4.10291">
        <ele>197</ele>
        <time>2021-05-04T08:37:03Z</time>
      </trkpt>
      <trkpt lat="49.13351" lon="4.10283">
        <ele>197</ele>
        <time>2021-05-04T08:37:07Z</time>
      </trkpt>
      <trkpt lat="49.13394" lon="4.10303">
        <ele>199</ele>
        <time>2021-05-04T08:37:15Z</time>
      </trkpt>
      <trkpt lat="49.1343" lon="4.1035">
        <ele>201</ele>
        <time>2021-05-04T08:37:24Z</time>
      </trkpt>
      <trkpt lat="49.13496" lon="4.10448">
        <ele>202</ele>
        <time>2021-05-04T08:37:40Z</time>
      </trkpt>
      <trkpt lat="49.13528" lon="4.10498">
        <ele>203</ele>
        <time>2021-05-04T08:37:48Z</time>
      </trkpt>
      <trkpt lat="49.13559" lon="4.10553">
        <ele>205</ele>
        <time>2021-05-04T08:37:57Z</time>
      </trkpt>
      <trkpt lat="49.13585" lon="4.10585">
        <ele>207</ele>
        <time>2021-05-04T08:38:03Z</time>
      </trkpt>
      <trkpt lat="49.13633" lon="4.10599">
        <ele>209</ele>
        <time>2021-05-04T08:38:11Z</time>
      </trkpt>
      <trkpt lat="49.13683" lon="4.10603">
        <ele>211</ele>
        <time>2021-05-04T08:38:20Z</time>
      </trkpt>
      <trkpt lat="49.13728" lon="4.10604">
        <ele>213</ele>
        <time>2021-05-04T08:38:28Z</time>
      </trkpt>
      <trkpt lat="49.13776" lon="4.10592">
        <ele>214</ele>
        <time>2021-05-04T08:38:37Z</time>
      </trkpt>
      <trkpt lat="49.13818" lon="4.10562">
        <ele>215</ele>
        <time>2021-05-04T08:38:45Z</time>
      </trkpt>
      <trkpt lat="49.13848" lon="4.10534">
        <ele>216</ele>
        <time>2021-05-04T08:38:51Z</time>
      </trkpt>
      <trkpt lat="49.1393" lon="4.10475">
        <ele>216</ele>
        <time>2021-05-04T08:39:07Z</time>
      </trkpt>
      <trkpt lat="49.14015" lon="4.10401">
        <ele>221</ele>
        <time>2021-05-04T08:39:25Z</time>
      </trkpt>
      <trkpt lat="49.14118" lon="4.1026">
        <ele>228</ele>
        <time>2021-05-04T08:39:49Z</time>
      </trkpt>
      <trkpt lat="49.14191" lon="4.10167">
        <ele>234</ele>
        <time>2021-05-04T08:40:06Z</time>
      </trkpt>
      <trkpt lat="49.14387" lon="4.09889">
        <ele>238</ele>
        <time>2021-05-04T08:40:54Z</time>
      </trkpt>
      <trkpt lat="49.14439" lon="4.09824">
        <ele>241</ele>
        <time>2021-05-04T08:41:06Z</time>
      </trkpt>
      <trkpt lat="49.14474" lon="4.09775">
        <ele>245</ele>
        <time>2021-05-04T08:41:14Z</time>
      </trkpt>
      <trkpt lat="49.1457" lon="4.09626">
        <ele>248</ele>
        <time>2021-05-04T08:41:39Z</time>
      </trkpt>
      <trkpt lat="49.14604" lon="4.09563">
        <ele>242</ele>
        <time>2021-05-04T08:41:48Z</time>
      </trkpt>
      <trkpt lat="49.14669" lon="4.09462">
        <ele>238</ele>
        <time>2021-05-04T08:42:05Z</time>
      </trkpt>
      <trkpt lat="49.14687" lon="4.09457">
        <ele>236</ele>
        <time>2021-05-04T08:42:08Z</time>
      </trkpt>
      <trkpt lat="49.14704" lon="4.09464">
        <ele>234</ele>
        <time>2021-05-04T08:42:11Z</time>
      </trkpt>
      <trkpt lat="49.14709" lon="4.09471">
        <ele>233</ele>
        <time>2021-05-04T08:42:12Z</time>
      </trkpt>
      <trkpt lat="49.1472" lon="4.09498">
        <ele>230</ele>
        <time>2021-05-04T08:42:16Z</time>
      </trkpt>
      <trkpt lat="49.14736" lon="4.09548">
        <ele>229</ele>
        <time>2021-05-04T08:42:22Z</time>
      </trkpt>
      <trkpt lat="49.14744" lon="4.09563">
        <ele>229</ele>
        <time>2021-05-04T08:42:25Z</time>
      </trkpt>
      <trkpt lat="49.14774" lon="4.09594">
        <ele>229</ele>
        <time>2021-05-04T08:42:31Z</time>
      </trkpt>
      <trkpt lat="49.14792" lon="4.096">
        <ele>229</ele>
        <time>2021-05-04T08:42:34Z</time>
      </trkpt>
      <trkpt lat="49.14811" lon="4.09605">
        <ele>228</ele>
        <time>2021-05-04T08:42:38Z</time>
      </trkpt>
      <trkpt lat="49.1486" lon="4.09601">
        <ele>225</ele>
        <time>2021-05-04T08:42:47Z</time>
      </trkpt>
      <trkpt lat="49.1495" lon="4.09573">
        <ele>215</ele>
        <time>2021-05-04T08:43:03Z</time>
      </trkpt>
      <trkpt lat="49.15003" lon="4.09568">
        <ele>210</ele>
        <time>2021-05-04T08:43:12Z</time>
      </trkpt>
      <trkpt lat="49.15014" lon="4.09569">
        <ele>209</ele>
        <time>2021-05-04T08:43:14Z</time>
      </trkpt>
      <trkpt lat="49.15064" lon="4.09591">
        <ele>208</ele>
        <time>2021-05-04T08:43:24Z</time>
      </trkpt>
      <trkpt lat="49.15072" lon="4.09601">
        <ele>207</ele>
        <time>2021-05-04T08:43:25Z</time>
      </trkpt>
      <trkpt lat="49.15082" lon="4.09629">
        <ele>208</ele>
        <time>2021-05-04T08:43:29Z</time>
      </trkpt>
      <trkpt lat="49.15097" lon="4.09698">
        <ele>209</ele>
        <time>2021-05-04T08:43:38Z</time>
      </trkpt>
      <trkpt lat="49.15109" lon="4.0973">
        <ele>208</ele>
        <time>2021-05-04T08:43:42Z</time>
      </trkpt>
      <trkpt lat="49.15126" lon="4.09741">
        <ele>207</ele>
        <time>2021-05-04T08:43:45Z</time>
      </trkpt>
      <trkpt lat="49.15137" lon="4.0974">
        <ele>205</ele>
        <time>2021-05-04T08:43:47Z</time>
      </trkpt>
      <trkpt lat="49.15151" lon="4.09733">
        <ele>203</ele>
        <time>2021-05-04T08:43:50Z</time>
      </trkpt>
      <trkpt lat="49.15188" lon="4.0968">
        <ele>196</ele>
        <time>2021-05-04T08:43:59Z</time>
      </trkpt>
      <trkpt lat="49.15283" lon="4.09521">
        <ele>187</ele>
        <time>2021-05-04T08:44:24Z</time>
      </trkpt>
      <trkpt lat="49.15343" lon="4.09403">
        <ele>183</ele>
        <time>2021-05-04T08:44:41Z</time>
      </trkpt>
      <trkpt lat="49.15401" lon="4.0927">
        <ele>176</ele>
        <time>2021-05-04T08:45:00Z</time>
      </trkpt>
      <trkpt lat="49.15427" lon="4.09222">
        <ele>174</ele>
        <time>2021-05-04T08:45:07Z</time>
      </trkpt>
      <trkpt lat="49.15434" lon="4.09211">
        <ele>173</ele>
        <time>2021-05-04T08:45:09Z</time>
      </trkpt>
      <trkpt lat="49.15476" lon="4.09178">
        <ele>171</ele>
        <time>2021-05-04T08:45:17Z</time>
      </trkpt>
      <trkpt lat="49.15507" lon="4.09167">
        <ele>170</ele>
        <time>2021-05-04T08:45:23Z</time>
      </trkpt>
      <trkpt lat="49.15517" lon="4.09167">
        <ele>169</ele>
        <time>2021-05-04T08:45:25Z</time>
      </trkpt>
      <trkpt lat="49.15537" lon="4.0917">
        <ele>167</ele>
        <time>2021-05-04T08:45:28Z</time>
      </trkpt>
      <trkpt lat="49.15568" lon="4.09184">
        <ele>166</ele>
        <time>2021-05-04T08:45:34Z</time>
      </trkpt>
      <trkpt lat="49.15578" lon="4.0919">
        <ele>165</ele>
        <time>2021-05-04T08:45:36Z</time>
      </trkpt>
      <trkpt lat="49.15613" lon="4.09234">
        <ele>163</ele>
        <time>2021-05-04T08:45:44Z</time>
      </trkpt>
      <trkpt lat="49.15641" lon="4.09276">
        <ele>161</ele>
        <time>2021-05-04T08:45:51Z</time>
      </trkpt>
      <trkpt lat="49.15687" lon="4.09312">
        <ele>160</ele>
        <time>2021-05-04T08:46:00Z</time>
      </trkpt>
      <trkpt lat="49.15734" lon="4.09331">
        <ele>159</ele>
        <time>2021-05-04T08:46:09Z</time>
      </trkpt>
      <trkpt lat="49.15779" lon="4.09338">
        <ele>156</ele>
        <time>2021-05-04T08:46:17Z</time>
      </trkpt>
      <trkpt lat="49.15875" lon="4.09347">
        <ele>149</ele>
        <time>2021-05-04T08:46:34Z</time>
      </trkpt>
      <trkpt lat="49.1592" lon="4.09334">
        <ele>146</ele>
        <time>2021-05-04T08:46:42Z</time>
      </trkpt>
      <trkpt lat="49.16007" lon="4.09298">
        <ele>143</ele>
        <time>2021-05-04T08:46:58Z</time>
      </trkpt>
      <trkpt lat="49.16057" lon="4.09273">
        <ele>142</ele>
        <time>2021-05-04T08:47:08Z</time>
      </trkpt>
      <trkpt lat="49.16103" lon="4.09244">
        <ele>141</ele>
        <time>2021-05-04T08:47:16Z</time>
      </trkpt>
      <trkpt lat="49.16145" lon="4.09211">
        <ele>139</ele>
        <time>2021-05-04T08:47:25Z</time>
      </trkpt>
      <trkpt lat="49.16269" lon="4.091">
        <ele>136</ele>
        <time>2021-05-04T08:47:50Z</time>
      </trkpt>
      <trkpt lat="49.16312" lon="4.09055">
        <ele>136</ele>
        <time>2021-05-04T08:48:00Z</time>
      </trkpt>
      <trkpt lat="49.16372" lon="4.08982">
        <ele>132</ele>
        <time>2021-05-04T08:48:13Z</time>
      </trkpt>
      <trkpt lat="49.16424" lon="4.08913">
        <ele>127</ele>
        <time>2021-05-04T08:48:26Z</time>
      </trkpt>
      <trkpt lat="49.16457" lon="4.08859">
        <ele>122</ele>
        <time>2021-05-04T08:48:34Z</time>
      </trkpt>
      <trkpt lat="49.16488" lon="4.08793">
        <ele>118</ele>
        <time>2021-05-04T08:48:44Z</time>
      </trkpt>
      <trkpt lat="49.16571" lon="4.08558">
        <ele>111</ele>
        <time>2021-05-04T08:49:15Z</time>
      </trkpt>
      <trkpt lat="49.16599" lon="4.0849">
        <ele>110</ele>
        <time>2021-05-04T08:49:24Z</time>
      </trkpt>
      <trkpt lat="49.16623" lon="4.08424">
        <ele>110</ele>
        <time>2021-05-04T08:49:33Z</time>
      </trkpt>
      <trkpt lat="49.16632" lon="4.0841">
        <ele>110</ele>
        <time>2021-05-04T08:49:35Z</time>
      </trkpt>
      <trkpt lat="49.16646" lon="4.08407">
        <ele>110</ele>
        <time>2021-05-04T08:49:38Z</time>
      </trkpt>
      <trkpt lat="49.16688" lon="4.08437">
        <ele>109</ele>
        <time>2021-05-04T08:49:46Z</time>
      </trkpt>
      <trkpt lat="49.16765" lon="4.08505">
        <ele>108</ele>
        <time>2021-05-04T08:50:02Z</time>
      </trkpt>
      <trkpt lat="49.16792" lon="4.08534">
        <ele>108</ele>
        <time>2021-05-04T08:50:08Z</time>
      </trkpt>
      <trkpt lat="49.16834" lon="4.08568">
        <ele>109</ele>
        <time>2021-05-04T08:50:16Z</time>
      </trkpt>
      <trkpt lat="49.16875" lon="4.08607">
        <ele>108</ele>
        <time>2021-05-04T08:50:25Z</time>
      </trkpt>
      <trkpt lat="49.17" lon="4.0871">
        <ele>109</ele>
        <time>2021-05-04T08:50:50Z</time>
      </trkpt>
      <trkpt lat="49.17082" lon="4.08788">
        <ele>108</ele>
        <time>2021-05-04T08:51:07Z</time>
      </trkpt>
      <trkpt lat="49.17289" lon="4.08966">
        <ele>107</ele>
        <time>2021-05-04T08:51:49Z</time>
      </trkpt>
      <trkpt lat="49.17336" lon="4.09012">
        <ele>106</ele>
        <time>2021-05-04T08:51:59Z</time>
      </trkpt>
      <trkpt lat="49.17422" lon="4.09085">
        <ele>104</ele>
        <time>2021-05-04T08:52:17Z</time>
      </trkpt>
      <trkpt lat="49.17621" lon="4.09266">
        <ele>103</ele>
        <time>2021-05-04T08:52:58Z</time>
      </trkpt>
      <trkpt lat="49.17677" lon="4.09312">
        <ele>103</ele>
        <time>2021-05-04T08:53:09Z</time>
      </trkpt>
      <trkpt lat="49.17715" lon="4.09348">
        <ele>103</ele>
        <time>2021-05-04T08:53:17Z</time>
      </trkpt>
      <trkpt lat="49.17808" lon="4.09428">
        <ele>102</ele>
        <time>2021-05-04T08:53:36Z</time>
      </trkpt>
      <trkpt lat="49.17987" lon="4.09589">
        <ele>100</ele>
        <time>2021-05-04T08:54:13Z</time>
      </trkpt>
      <trkpt lat="49.18027" lon="4.09628">
        <ele>100</ele>
        <time>2021-05-04T08:54:22Z</time>
      </trkpt>
      <trkpt lat="49.18064" lon="4.09674">
        <ele>100</ele>
        <time>2021-05-04T08:54:30Z</time>
      </trkpt>
      <trkpt lat="49.18159" lon="4.0982">
        <ele>97</ele>
        <time>2021-05-04T08:54:54Z</time>
      </trkpt>
      <trkpt lat="49.18275" lon="4.09992">
        <ele>94</ele>
        <time>2021-05-04T08:55:23Z</time>
      </trkpt>
      <trkpt lat="49.18359" lon="4.10125">
        <ele>94</ele>
        <time>2021-05-04T08:55:44Z</time>
      </trkpt>
      <trkpt lat="49.18436" lon="4.10235">
        <ele>93</ele>
        <time>2021-05-04T08:56:03Z</time>
      </trkpt>
      <trkpt lat="49.18584" lon="4.10463">
        <ele>93</ele>
        <time>2021-05-04T08:56:40Z</time>
      </trkpt>
      <trkpt lat="49.18623" lon="4.10518">
        <ele>92</ele>
        <time>2021-05-04T08:56:50Z</time>
      </trkpt>
      <trkpt lat="49.18792" lon="4.10779">
        <ele>89</ele>
        <time>2021-05-04T08:57:33Z</time>
      </trkpt>
      <trkpt lat="49.19002" lon="4.11093">
        <ele>89</ele>
        <time>2021-05-04T08:58:25Z</time>
      </trkpt>
      <trkpt lat="49.19036" lon="4.11134">
        <ele>88</ele>
        <time>2021-05-04T08:58:32Z</time>
      </trkpt>
      <trkpt lat="49.19118" lon="4.11212">
        <ele>87</ele>
        <time>2021-05-04T08:58:50Z</time>
      </trkpt>
      <trkpt lat="49.19163" lon="4.1126">
        <ele>87</ele>
        <time>2021-05-04T08:58:59Z</time>
      </trkpt>
      <trkpt lat="49.19208" lon="4.11296">
        <ele>88</ele>
        <time>2021-05-04T08:59:08Z</time>
      </trkpt>
      <trkpt lat="49.19213" lon="4.11303">
        <ele>88</ele>
        <time>2021-05-04T08:59:10Z</time>
      </trkpt>
      <trkpt lat="49.19254" lon="4.11338">
        <ele>89</ele>
        <time>2021-05-04T08:59:18Z</time>
      </trkpt>
      <trkpt lat="49.19311" lon="4.11393">
        <ele>87</ele>
        <time>2021-05-04T08:59:30Z</time>
      </trkpt>
      <trkpt lat="49.19313" lon="4.11398">
        <ele>87</ele>
        <time>2021-05-04T08:59:31Z</time>
      </trkpt>
      <trkpt lat="49.1931" lon="4.11402">
        <ele>87</ele>
        <time>2021-05-04T08:59:31Z</time>
      </trkpt>
      <trkpt lat="49.19311" lon="4.11411">
        <ele>87</ele>
        <time>2021-05-04T08:59:32Z</time>
      </trkpt>
      <trkpt lat="49.19317" lon="4.11433">
        <ele>87</ele>
        <time>2021-05-04T08:59:35Z</time>
      </trkpt>
      <trkpt lat="49.19313" lon="4.11485">
        <ele>87</ele>
        <time>2021-05-04T08:59:41Z</time>
      </trkpt>
      <trkpt lat="49.1931" lon="4.11494">
        <ele>87</ele>
        <time>2021-05-04T08:59:42Z</time>
      </trkpt>
      <trkpt lat="49.19303" lon="4.11625">
        <ele>89</ele>
        <time>2021-05-04T08:59:58Z</time>
      </trkpt>
      <trkpt lat="49.19308" lon="4.11638">
        <ele>89</ele>
        <time>2021-05-04T09:00:00Z</time>
      </trkpt>
      <trkpt lat="49.19343" lon="4.11682">
        <ele>90</ele>
        <time>2021-05-04T09:00:08Z</time>
      </trkpt>
      <trkpt lat="49.19382" lon="4.11717">
        <ele>91</ele>
        <time>2021-05-04T09:00:16Z</time>
      </trkpt>
      <trkpt lat="49.19426" lon="4.11761">
        <ele>91</ele>
        <time>2021-05-04T09:00:25Z</time>
      </trkpt>
      <trkpt lat="49.19464" lon="4.11807">
        <ele>88</ele>
        <time>2021-05-04T09:00:34Z</time>
      </trkpt>
      <trkpt lat="49.19494" lon="4.11858">
        <ele>87</ele>
        <time>2021-05-04T09:00:42Z</time>
      </trkpt>
      <trkpt lat="49.19505" lon="4.11888">
        <ele>88</ele>
        <time>2021-05-04T09:00:46Z</time>
      </trkpt>
      <trkpt lat="49.19535" lon="4.11939">
        <ele>87</ele>
        <time>2021-05-04T09:00:54Z</time>
      </trkpt>
      <trkpt lat="49.19617" lon="4.12198">
        <ele>90</ele>
        <time>2021-05-04T09:01:27Z</time>
      </trkpt>
      <trkpt lat="49.19637" lon="4.12252">
        <ele>90</ele>
        <time>2021-05-04T09:01:34Z</time>
      </trkpt>
      <trkpt lat="49.19643" lon="4.12262">
        <ele>90</ele>
        <time>2021-05-04T09:01:36Z</time>
      </trkpt>
      <trkpt lat="49.19653" lon="4.12263">
        <ele>91</ele>
        <time>2021-05-04T09:01:38Z</time>
      </trkpt>
      <trkpt lat="49.19669" lon="4.12252">
        <ele>91</ele>
        <time>2021-05-04T09:01:41Z</time>
      </trkpt>
      <trkpt lat="49.19679" lon="4.12232">
        <ele>91</ele>
        <time>2021-05-04T09:01:44Z</time>
      </trkpt>
      <trkpt lat="49.19689" lon="4.12113">
        <ele>88</ele>
        <time>2021-05-04T09:01:58Z</time>
      </trkpt>
      <trkpt lat="49.19704" lon="4.12065">
        <ele>88</ele>
        <time>2021-05-04T09:02:04Z</time>
      </trkpt>
      <trkpt lat="49.19838" lon="4.11735">
        <ele>87</ele>
        <time>2021-05-04T09:02:49Z</time>
      </trkpt>
      <trkpt lat="49.19848" lon="4.1172">
        <ele>88</ele>
        <time>2021-05-04T09:02:51Z</time>
      </trkpt>
      <trkpt lat="49.19854" lon="4.11715">
        <ele>88</ele>
        <time>2021-05-04T09:02:53Z</time>
      </trkpt>
      <trkpt lat="49.19895" lon="4.11706">
        <ele>88</ele>
        <time>2021-05-04T09:03:00Z</time>
      </trkpt>
      <trkpt lat="49.19936" lon="4.1174">
        <ele>88</ele>
        <time>2021-05-04T09:03:08Z</time>
      </trkpt>
      <trkpt lat="49.20262" lon="4.12101">
        <ele>86</ele>
        <time>2021-05-04T09:04:20Z</time>
      </trkpt>
      <trkpt lat="49.20275" lon="4.12118">
        <ele>86</ele>
        <time>2021-05-04T09:04:23Z</time>
      </trkpt>
      <trkpt lat="49.20275" lon="4.12127">
        <ele>86</ele>
        <time>2021-05-04T09:04:24Z</time>
      </trkpt>
      <trkpt lat="49.20317" lon="4.12165">
        <ele>87</ele>
        <time>2021-05-04T09:04:33Z</time>
      </trkpt>
      <trkpt lat="49.20365" lon="4.12185">
        <ele>86</ele>
        <time>2021-05-04T09:04:42Z</time>
      </trkpt>
      <trkpt lat="49.20545" lon="4.12247">
        <ele>84</ele>
        <time>2021-05-04T09:05:14Z</time>
      </trkpt>
      <trkpt lat="49.20586" lon="4.12252">
        <ele>85</ele>
        <time>2021-05-04T09:05:22Z</time>
      </trkpt>
      <trkpt lat="49.20625" lon="4.12246">
        <ele>84</ele>
        <time>2021-05-04T09:05:29Z</time>
      </trkpt>
      <trkpt lat="49.2066" lon="4.1228">
        <ele>83</ele>
        <time>2021-05-04T09:05:36Z</time>
      </trkpt>
      <trkpt lat="49.20781" lon="4.1238">
        <ele>85</ele>
        <time>2021-05-04T09:06:01Z</time>
      </trkpt>
      <trkpt lat="49.2086" lon="4.12461">
        <ele>86</ele>
        <time>2021-05-04T09:06:17Z</time>
      </trkpt>
      <trkpt lat="49.20869" lon="4.12447">
        <ele>86</ele>
        <time>2021-05-04T09:06:20Z</time>
      </trkpt>
      <trkpt lat="49.20924" lon="4.12255">
        <ele>85</ele>
        <time>2021-05-04T09:06:44Z</time>
      </trkpt>
      <trkpt lat="49.21037" lon="4.11908">
        <ele>85</ele>
        <time>2021-05-04T09:07:29Z</time>
      </trkpt>
      <trkpt lat="49.2108" lon="4.11769">
        <ele>85</ele>
        <time>2021-05-04T09:07:47Z</time>
      </trkpt>
      <trkpt lat="49.21106" lon="4.11702">
        <ele>84</ele>
        <time>2021-05-04T09:07:56Z</time>
      </trkpt>
      <trkpt lat="49.21159" lon="4.1159">
        <ele>84</ele>
        <time>2021-05-04T09:08:12Z</time>
      </trkpt>
      <trkpt lat="49.2119" lon="4.11539">
        <ele>84</ele>
        <time>2021-05-04T09:08:20Z</time>
      </trkpt>
      <trkpt lat="49.2133" lon="4.11343">
        <ele>86</ele>
        <time>2021-05-04T09:08:54Z</time>
      </trkpt>
      <trkpt lat="49.21356" lon="4.11303">
        <ele>85</ele>
        <time>2021-05-04T09:09:01Z</time>
      </trkpt>
      <trkpt lat="49.21424" lon="4.11216">
        <ele>84</ele>
        <time>2021-05-04T09:09:16Z</time>
      </trkpt>
      <trkpt lat="49.21535" lon="4.11061">
        <ele>83</ele>
        <time>2021-05-04T09:09:43Z</time>
      </trkpt>
      <trkpt lat="49.21581" lon="4.10993">
        <ele>84</ele>
        <time>2021-05-04T09:09:54Z</time>
      </trkpt>
      <trkpt lat="49.2164" lon="4.10913">
        <ele>85</ele>
        <time>2021-05-04T09:10:08Z</time>
      </trkpt>
      <trkpt lat="49.21713" lon="4.10794">
        <ele>85</ele>
        <time>2021-05-04T09:10:27Z</time>
      </trkpt>
      <trkpt lat="49.21744" lon="4.10735">
        <ele>85</ele>
        <time>2021-05-04T09:10:36Z</time>
      </trkpt>
      <trkpt lat="49.21782" lon="4.1065">
        <ele>85</ele>
        <time>2021-05-04T09:10:48Z</time>
      </trkpt>
      <trkpt lat="49.21799" lon="4.1062">
        <ele>85</ele>
        <time>2021-05-04T09:10:53Z</time>
      </trkpt>
      <trkpt lat="49.21845" lon="4.10526">
        <ele>85</ele>
        <time>2021-05-04T09:11:06Z</time>
      </trkpt>
      <trkpt lat="49.21859" lon="4.10493">
        <ele>85</ele>
        <time>2021-05-04T09:11:11Z</time>
      </trkpt>
      <trkpt lat="49.21864" lon="4.10473">
        <ele>85</ele>
        <time>2021-05-04T09:11:14Z</time>
      </trkpt>
      <trkpt lat="49.21878" lon="4.10443">
        <ele>85</ele>
        <time>2021-05-04T09:11:18Z</time>
      </trkpt>
      <trkpt lat="49.21896" lon="4.10389">
        <ele>84</ele>
        <time>2021-05-04T09:11:25Z</time>
      </trkpt>
      <trkpt lat="49.21926" lon="4.10333">
        <ele>83</ele>
        <time>2021-05-04T09:11:33Z</time>
      </trkpt>
      <trkpt lat="49.21941" lon="4.10298">
        <ele>82</ele>
        <time>2021-05-04T09:11:38Z</time>
      </trkpt>
      <trkpt lat="49.21953" lon="4.10278">
        <ele>82</ele>
        <time>2021-05-04T09:11:41Z</time>
      </trkpt>
      <trkpt lat="49.21998" lon="4.10169">
        <ele>84</ele>
        <time>2021-05-04T09:11:56Z</time>
      </trkpt>
      <trkpt lat="49.22013" lon="4.1014">
        <ele>85</ele>
        <time>2021-05-04T09:12:01Z</time>
      </trkpt>
      <trkpt lat="49.22018" lon="4.10123">
        <ele>86</ele>
        <time>2021-05-04T09:12:03Z</time>
      </trkpt>
      <trkpt lat="49.22089" lon="4.09967">
        <ele>85</ele>
        <time>2021-05-04T09:12:25Z</time>
      </trkpt>
      <trkpt lat="49.22097" lon="4.09941">
        <ele>85</ele>
        <time>2021-05-04T09:12:28Z</time>
      </trkpt>
      <trkpt lat="49.22107" lon="4.09926">
        <ele>85</ele>
        <time>2021-05-04T09:12:31Z</time>
      </trkpt>
      <trkpt lat="49.22184" lon="4.09748">
        <ele>83</ele>
        <time>2021-05-04T09:12:56Z</time>
      </trkpt>
      <trkpt lat="49.22227" lon="4.09624">
        <ele>84</ele>
        <time>2021-05-04T09:13:12Z</time>
      </trkpt>
      <trkpt lat="49.22246" lon="4.09547">
        <ele>83</ele>
        <time>2021-05-04T09:13:21Z</time>
      </trkpt>
      <trkpt lat="49.22261" lon="4.09505">
        <ele>83</ele>
        <time>2021-05-04T09:13:27Z</time>
      </trkpt>
      <trkpt lat="49.2227" lon="4.09433">
        <ele>84</ele>
        <time>2021-05-04T09:13:35Z</time>
      </trkpt>
      <trkpt lat="49.22287" lon="4.09363">
        <ele>84</ele>
        <time>2021-05-04T09:13:44Z</time>
      </trkpt>
      <trkpt lat="49.22293" lon="4.0932">
        <ele>84</ele>
        <time>2021-05-04T09:13:49Z</time>
      </trkpt>
      <trkpt lat="49.223" lon="4.09305">
        <ele>85</ele>
        <time>2021-05-04T09:13:51Z</time>
      </trkpt>
      <trkpt lat="49.22301" lon="4.0929">
        <ele>85</ele>
        <time>2021-05-04T09:13:53Z</time>
      </trkpt>
      <trkpt lat="49.22306" lon="4.09275">
        <ele>85</ele>
        <time>2021-05-04T09:13:55Z</time>
      </trkpt>
      <trkpt lat="49.22326" lon="4.0917">
        <ele>86</ele>
        <time>2021-05-04T09:14:08Z</time>
      </trkpt>
      <trkpt lat="49.22336" lon="4.09138">
        <ele>86</ele>
        <time>2021-05-04T09:14:12Z</time>
      </trkpt>
      <trkpt lat="49.22346" lon="4.09064">
        <ele>86</ele>
        <time>2021-05-04T09:14:21Z</time>
      </trkpt>
      <trkpt lat="49.22352" lon="4.09041">
        <ele>87</ele>
        <time>2021-05-04T09:14:24Z</time>
      </trkpt>
      <trkpt lat="49.22362" lon="4.09018">
        <ele>87</ele>
        <time>2021-05-04T09:14:27Z</time>
      </trkpt>
      <trkpt lat="49.22367" lon="4.0896">
        <ele>87</ele>
        <time>2021-05-04T09:14:34Z</time>
      </trkpt>
      <trkpt lat="49.22386" lon="4.08877">
        <ele>86</ele>
        <time>2021-05-04T09:14:44Z</time>
      </trkpt>
      <trkpt lat="49.22384" lon="4.08869">
        <ele>86</ele>
        <time>2021-05-04T09:14:45Z</time>
      </trkpt>
      <trkpt lat="49.22399" lon="4.08808">
        <ele>86</ele>
        <time>2021-05-04T09:14:52Z</time>
      </trkpt>
      <trkpt lat="49.22407" lon="4.08789">
        <ele>86</ele>
        <time>2021-05-04T09:14:55Z</time>
      </trkpt>
      <trkpt lat="49.22405" lon="4.08781">
        <ele>86</ele>
        <time>2021-05-04T09:14:56Z</time>
      </trkpt>
      <trkpt lat="49.22419" lon="4.08727">
        <ele>87</ele>
        <time>2021-05-04T09:15:03Z</time>
      </trkpt>
      <trkpt lat="49.2242" lon="4.08696">
        <ele>87</ele>
        <time>2021-05-04T09:15:06Z</time>
      </trkpt>
      <trkpt lat="49.22435" lon="4.08627">
        <ele>87</ele>
        <time>2021-05-04T09:15:15Z</time>
      </trkpt>
      <trkpt lat="49.2244" lon="4.0861">
        <ele>86</ele>
        <time>2021-05-04T09:15:17Z</time>
      </trkpt>
      <trkpt lat="49.22449" lon="4.08591">
        <ele>86</ele>
        <time>2021-05-04T09:15:20Z</time>
      </trkpt>
      <trkpt lat="49.22464" lon="4.0852">
        <ele>86</ele>
        <time>2021-05-04T09:15:28Z</time>
      </trkpt>
      <trkpt lat="49.22475" lon="4.08447">
        <ele>86</ele>
        <time>2021-05-04T09:15:37Z</time>
      </trkpt>
      <trkpt lat="49.22483" lon="4.08418">
        <ele>85</ele>
        <time>2021-05-04T09:15:41Z</time>
      </trkpt>
      <trkpt lat="49.22483" lon="4.08408">
        <ele>85</ele>
        <time>2021-05-04T09:15:42Z</time>
      </trkpt>
      <trkpt lat="49.22501" lon="4.08304">
        <ele>85</ele>
        <time>2021-05-04T09:15:54Z</time>
      </trkpt>
      <trkpt lat="49.22541" lon="4.0813">
        <ele>86</ele>
        <time>2021-05-04T09:16:16Z</time>
      </trkpt>
      <trkpt lat="49.22554" lon="4.08044">
        <ele>85</ele>
        <time>2021-05-04T09:16:26Z</time>
      </trkpt>
      <trkpt lat="49.22571" lon="4.07986">
        <ele>86</ele>
        <time>2021-05-04T09:16:34Z</time>
      </trkpt>
      <trkpt lat="49.22583" lon="4.07923">
        <ele>86</ele>
        <time>2021-05-04T09:16:41Z</time>
      </trkpt>
      <trkpt lat="49.22586" lon="4.07887">
        <ele>86</ele>
        <time>2021-05-04T09:16:45Z</time>
      </trkpt>
      <trkpt lat="49.22608" lon="4.07812">
        <ele>86</ele>
        <time>2021-05-04T09:16:55Z</time>
      </trkpt>
      <trkpt lat="49.22612" lon="4.07786">
        <ele>87</ele>
        <time>2021-05-04T09:16:58Z</time>
      </trkpt>
      <trkpt lat="49.2261" lon="4.07776">
        <ele>87</ele>
        <time>2021-05-04T09:16:59Z</time>
      </trkpt>
      <trkpt lat="49.22638" lon="4.07615">
        <ele>87</ele>
        <time>2021-05-04T09:17:19Z</time>
      </trkpt>
      <trkpt lat="49.22658" lon="4.07543">
        <ele>86</ele>
        <time>2021-05-04T09:17:28Z</time>
      </trkpt>
      <trkpt lat="49.22659" lon="4.07526">
        <ele>87</ele>
        <time>2021-05-04T09:17:30Z</time>
      </trkpt>
      <trkpt lat="49.22655" lon="4.07499">
        <ele>87</ele>
        <time>2021-05-04T09:17:33Z</time>
      </trkpt>
      <trkpt lat="49.22722" lon="4.07166">
        <ele>83</ele>
        <time>2021-05-04T09:18:13Z</time>
      </trkpt>
      <trkpt lat="49.22728" lon="4.0712">
        <ele>84</ele>
        <time>2021-05-04T09:18:19Z</time>
      </trkpt>
      <trkpt lat="49.2273" lon="4.07112">
        <ele>84</ele>
        <time>2021-05-04T09:18:20Z</time>
      </trkpt>
      <trkpt lat="49.22758" lon="4.07081">
        <ele>85</ele>
        <time>2021-05-04T09:18:26Z</time>
      </trkpt>
      <trkpt lat="49.22766" lon="4.07053">
        <ele>85</ele>
        <time>2021-05-04T09:18:30Z</time>
      </trkpt>
      <trkpt lat="49.22774" lon="4.06987">
        <ele>83</ele>
        <time>2021-05-04T09:18:37Z</time>
      </trkpt>
      <trkpt lat="49.22772" lon="4.06979">
        <ele>83</ele>
        <time>2021-05-04T09:18:38Z</time>
      </trkpt>
      <trkpt lat="49.22766" lon="4.06973">
        <ele>83</ele>
        <time>2021-05-04T09:18:40Z</time>
      </trkpt>
      <trkpt lat="49.22766" lon="4.06959">
        <ele>82</ele>
        <time>2021-05-04T09:18:41Z</time>
      </trkpt>
      <trkpt lat="49.2297" lon="4.05975">
        <ele>85</ele>
        <time>2021-05-04T09:20:41Z</time>
      </trkpt>
      <trkpt lat="49.23076" lon="4.05571">
        <ele>86</ele>
        <time>2021-05-04T09:21:32Z</time>
      </trkpt>
      <trkpt lat="49.23261" lon="4.04847">
        <ele>83</ele>
        <time>2021-05-04T09:23:02Z</time>
      </trkpt>
      <trkpt lat="49.23263" lon="4.04844">
        <ele>83</ele>
        <time>2021-05-04T09:23:03Z</time>
      </trkpt>
      <trkpt lat="49.2329" lon="4.04848">
        <ele>84</ele>
        <time>2021-05-04T09:23:07Z</time>
      </trkpt>
      <trkpt lat="49.23313" lon="4.04856">
        <ele>84</ele>
        <time>2021-05-04T09:23:12Z</time>
      </trkpt>
      <trkpt lat="49.23322" lon="4.04788">
        <ele>84</ele>
        <time>2021-05-04T09:23:20Z</time>
      </trkpt>
      <trkpt lat="49.23337" lon="4.04719">
        <ele>84</ele>
        <time>2021-05-04T09:23:28Z</time>
      </trkpt>
      <trkpt lat="49.23367" lon="4.04604">
        <ele>81</ele>
        <time>2021-05-04T09:23:43Z</time>
      </trkpt>
      <trkpt lat="49.23387" lon="4.04533">
        <ele>80</ele>
        <time>2021-05-04T09:23:51Z</time>
      </trkpt>
      <trkpt lat="49.23433" lon="4.04424">
        <ele>83</ele>
        <time>2021-05-04T09:24:07Z</time>
      </trkpt>
      <trkpt lat="49.23449" lon="4.04392">
        <ele>83</ele>
        <time>2021-05-04T09:24:11Z</time>
      </trkpt>
      <trkpt lat="49.23498" lon="4.04315">
        <ele>84</ele>
        <time>2021-05-04T09:24:24Z</time>
      </trkpt>
      <trkpt lat="49.23565" lon="4.04236">
        <ele>84</ele>
        <time>2021-05-04T09:24:39Z</time>
      </trkpt>
      <trkpt lat="49.23721" lon="4.0407">
        <ele>82</ele>
        <time>2021-05-04T09:25:13Z</time>
      </trkpt>
      <trkpt lat="49.23733" lon="4.04058">
        <ele>82</ele>
        <time>2021-05-04T09:25:15Z</time>
      </trkpt>
      <trkpt lat="49.23752" lon="4.04046">
        <ele>83</ele>
        <time>2021-05-04T09:25:19Z</time>
      </trkpt>
      <trkpt lat="49.23815" lon="4.03973">
        <ele>82</ele>
        <time>2021-05-04T09:25:33Z</time>
      </trkpt>
      <trkpt lat="49.24007" lon="4.03781">
        <ele>82</ele>
        <time>2021-05-04T09:26:14Z</time>
      </trkpt>
      <trkpt lat="49.24109" lon="4.03667">
        <ele>80</ele>
        <time>2021-05-04T09:26:36Z</time>
      </trkpt>
      <trkpt lat="49.24149" lon="4.03627">
        <ele>81</ele>
        <time>2021-05-04T09:26:45Z</time>
      </trkpt>
      <trkpt lat="49.24193" lon="4.03571">
        <ele>80</ele>
        <time>2021-05-04T09:26:55Z</time>
      </trkpt>
      <trkpt lat="49.2423" lon="4.03529">
        <ele>80</ele>
        <time>2021-05-04T09:27:03Z</time>
      </trkpt>
      <trkpt lat="49.24314" lon="4.0345">
        <ele>81</ele>
        <time>2021-05-04T09:27:21Z</time>
      </trkpt>
      <trkpt lat="49.2445" lon="4.033">
        <ele>80</ele>
        <time>2021-05-04T09:27:50Z</time>
      </trkpt>
      <trkpt lat="49.24519" lon="4.03188">
        <ele>78</ele>
        <time>2021-05-04T09:28:08Z</time>
      </trkpt>
      <trkpt lat="49.24523" lon="4.03172">
        <ele>78</ele>
        <time>2021-05-04T09:28:10Z</time>
      </trkpt>
      <trkpt lat="49.24555" lon="4.03112">
        <ele>78</ele>
        <time>2021-05-04T09:28:19Z</time>
      </trkpt>
      <trkpt lat="49.24589" lon="4.03058">
        <ele>77</ele>
        <time>2021-05-04T09:28:28Z</time>
      </trkpt>
      <trkpt lat="49.24619" lon="4.03018">
        <ele>78</ele>
        <time>2021-05-04T09:28:35Z</time>
      </trkpt>
      <trkpt lat="49.24624" lon="4.03013">
        <ele>78</ele>
        <time>2021-05-04T09:28:36Z</time>
      </trkpt>
      <trkpt lat="49.24676" lon="4.02988">
        <ele>78</ele>
        <time>2021-05-04T09:28:46Z</time>
      </trkpt>
      <trkpt lat="49.24687" lon="4.02997">
        <ele>79</ele>
        <time>2021-05-04T09:28:48Z</time>
      </trkpt>
      <trkpt lat="49.24701" lon="4.02998">
        <ele>80</ele>
        <time>2021-05-04T09:28:50Z</time>
      </trkpt>
      <trkpt lat="49.24716" lon="4.02947">
        <ele>80</ele>
        <time>2021-05-04T09:28:57Z</time>
      </trkpt>
      <trkpt lat="49.24875" lon="4.0269">
        <ele>78</ele>
        <time>2021-05-04T09:29:38Z</time>
      </trkpt>
      <trkpt lat="49.24915" lon="4.02631">
        <ele>79</ele>
        <time>2021-05-04T09:29:48Z</time>
      </trkpt>
      <trkpt lat="49.24926" lon="4.02621">
        <ele>79</ele>
        <time>2021-05-04T09:29:50Z</time>
      </trkpt>
      <trkpt lat="49.25022" lon="4.02464">
        <ele>79</ele>
        <time>2021-05-04T09:30:15Z</time>
      </trkpt>
      <trkpt lat="49.25032" lon="4.02362">
        <ele>78</ele>
        <time>2021-05-04T09:30:27Z</time>
      </trkpt>
      <trkpt lat="49.25034" lon="4.02362">
        <ele>78</ele>
        <time>2021-05-04T09:30:28Z</time>
      </trkpt>
      <trkpt lat="49.25066" lon="4.02313">
        <ele>79</ele>
        <time>2021-05-04T09:30:36Z</time>
      </trkpt>
      <trkpt lat="49.25097" lon="4.02255">
        <ele>78</ele>
        <time>2021-05-04T09:30:44Z</time>
      </trkpt>
      <trkpt lat="49.25117" lon="4.02224">
        <ele>78</ele>
        <time>2021-05-04T09:30:49Z</time>
      </trkpt>
      <trkpt lat="49.25166" lon="4.02157">
        <ele>79</ele>
        <time>2021-05-04T09:31:01Z</time>
      </trkpt>
      <trkpt lat="49.2521" lon="4.02082">
        <ele>81</ele>
        <time>2021-05-04T09:31:13Z</time>
      </trkpt>
      <trkpt lat="49.25232" lon="4.02053">
        <ele>81</ele>
        <time>2021-05-04T09:31:18Z</time>
      </trkpt>
      <trkpt lat="49.2526" lon="4.01998">
        <ele>81</ele>
        <time>2021-05-04T09:31:26Z</time>
      </trkpt>
      <trkpt lat="49.25314" lon="4.01909">
        <ele>79</ele>
        <time>2021-05-04T09:31:40Z</time>
      </trkpt>
      <trkpt lat="49.25339" lon="4.01876">
        <ele>79</ele>
        <time>2021-05-04T09:31:46Z</time>
      </trkpt>
      <trkpt lat="49.25469" lon="4.01668">
        <ele>75</ele>
        <time>2021-05-04T09:32:20Z</time>
      </trkpt>
      <trkpt lat="49.25512" lon="4.01603">
        <ele>77</ele>
        <time>2021-05-04T09:32:30Z</time>
      </trkpt>
      <trkpt lat="49.25541" lon="4.01553">
        <ele>77</ele>
        <time>2021-05-04T09:32:38Z</time>
      </trkpt>
      <trkpt lat="49.25577" lon="4.015">
        <ele>77</ele>
        <time>2021-05-04T09:32:47Z</time>
      </trkpt>
      <trkpt lat="49.25632" lon="4.01412">
        <ele>77</ele>
        <time>2021-05-04T09:33:01Z</time>
      </trkpt>
      <trkpt lat="49.25669" lon="4.01359">
        <ele>77</ele>
        <time>2021-05-04T09:33:10Z</time>
      </trkpt>
      <trkpt lat="49.25732" lon="4.01253">
        <ele>82</ele>
        <time>2021-05-04T09:33:27Z</time>
      </trkpt>
      <trkpt lat="49.25791" lon="4.01162">
        <ele>80</ele>
        <time>2021-05-04T09:33:42Z</time>
      </trkpt>
      <trkpt lat="49.25865" lon="4.01041">
        <ele>77</ele>
        <time>2021-05-04T09:34:01Z</time>
      </trkpt>
      <trkpt lat="49.25904" lon="4.00984">
        <ele>76</ele>
        <time>2021-05-04T09:34:10Z</time>
      </trkpt>
      <trkpt lat="49.25906" lon="4.00997">
        <ele>77</ele>
        <time>2021-05-04T09:34:12Z</time>
      </trkpt>
      <trkpt lat="49.25912" lon="4.01011">
        <ele>77</ele>
        <time>2021-05-04T09:34:14Z</time>
      </trkpt>
      <trkpt lat="49.25928" lon="4.01036">
        <ele>78</ele>
        <time>2021-05-04T09:34:18Z</time>
      </trkpt>
      <trkpt lat="49.25972" lon="4.01056">
        <ele>78</ele>
        <time>2021-05-04T09:34:26Z</time>
      </trkpt>
      <trkpt lat="49.26061" lon="4.0108">
        <ele>78</ele>
        <time>2021-05-04T09:34:42Z</time>
      </trkpt>
      <trkpt lat="49.2608" lon="4.01081">
        <ele>78</ele>
        <time>2021-05-04T09:34:46Z</time>
      </trkpt>
      <trkpt lat="49.26171" lon="4.01122">
        <ele>80</ele>
        <time>2021-05-04T09:35:03Z</time>
      </trkpt>
      <trkpt lat="49.26213" lon="4.01154">
        <ele>79</ele>
        <time>2021-05-04T09:35:11Z</time>
      </trkpt>
      <trkpt lat="49.26217" lon="4.01166">
        <ele>80</ele>
        <time>2021-05-04T09:35:12Z</time>
      </trkpt>
      <trkpt lat="49.26201" lon="4.0135">
        <ele>81</ele>
        <time>2021-05-04T09:35:34Z</time>
      </trkpt>
      <trkpt lat="49.26262" lon="4.01363">
        <ele>81</ele>
        <time>2021-05-04T09:35:45Z</time>
      </trkpt>
    </trkseg>
  </trk>
</gpx>